<?xml version="1.0" encoding="UTF-8" standalone="no" ?>
<gpx xmlns="http://www.topografix.com/GPX/1/1" xmlns:xsi="http://www.w3.org/2001/XMLSchema-instance" xsi:schemaLocation="http://www.topografix.com/GPX/1/1 http://www.topografix.com/GPX/1/1/gpx.xsd" version="1.1" creator="VisuGPX - https://www.visugpx.com">
  <metadata>
    <name>TOUR DES lACS</name>
    <desc><![CDATA[CARAMAN 31460
Rando des lacs]]></desc>
  </metadata>
  <wpt lat="43.06353" lon="-0.3515">
    <ele>1415.9</ele>
    <name><![CDATA[SOUM DE LA PALE]]></name>
  </wpt>
  <trk>
    <name><![CDATA[Tracé actuel: 19 MAI 2016 13:33]]></name>
    <trkseg>
      <trkpt lat="43.53334" lon="1.76065">
        <ele>154.91</ele>
        <time>2016-05-19T11:33:35Z</time>
      </trkpt>
      <trkpt lat="43.53335" lon="1.76068">
        <ele>154.91</ele>
        <time>2016-05-19T11:33:45Z</time>
      </trkpt>
      <trkpt lat="43.53339" lon="1.76071">
        <ele>154.91</ele>
        <time>2016-05-19T11:33:54Z</time>
      </trkpt>
      <trkpt lat="43.53344" lon="1.76073">
        <ele>154.91</ele>
        <time>2016-05-19T11:34:43Z</time>
      </trkpt>
      <trkpt lat="43.53345" lon="1.76068">
        <ele>154.91</ele>
        <time>2016-05-19T11:34:47Z</time>
      </trkpt>
      <trkpt lat="43.53348" lon="1.76065">
        <ele>154.91</ele>
        <time>2016-05-19T11:34:50Z</time>
      </trkpt>
      <trkpt lat="43.53354" lon="1.76052">
        <ele>156.35</ele>
        <time>2016-05-19T11:35:02Z</time>
      </trkpt>
      <trkpt lat="43.53358" lon="1.7605">
        <ele>157.31</ele>
        <time>2016-05-19T11:35:06Z</time>
      </trkpt>
      <trkpt lat="43.53361" lon="1.7605">
        <ele>160.2</ele>
        <time>2016-05-19T11:35:08Z</time>
      </trkpt>
      <trkpt lat="43.53362" lon="1.76052">
        <ele>163.56</ele>
        <time>2016-05-19T11:35:09Z</time>
      </trkpt>
      <trkpt lat="43.53362" lon="1.76054">
        <ele>169.81</ele>
        <time>2016-05-19T11:35:11Z</time>
      </trkpt>
      <trkpt lat="43.53362" lon="1.76054">
        <ele>172.69</ele>
        <time>2016-05-19T11:35:12Z</time>
      </trkpt>
      <trkpt lat="43.53361" lon="1.76055">
        <ele>177.5</ele>
        <time>2016-05-19T11:35:14Z</time>
      </trkpt>
      <trkpt lat="43.53361" lon="1.76056">
        <ele>180.38</ele>
        <time>2016-05-19T11:35:15Z</time>
      </trkpt>
      <trkpt lat="43.53359" lon="1.76059">
        <ele>187.11</ele>
        <time>2016-05-19T11:35:18Z</time>
      </trkpt>
      <trkpt lat="43.53358" lon="1.76061">
        <ele>191.44</ele>
        <time>2016-05-19T11:35:20Z</time>
      </trkpt>
      <trkpt lat="43.53356" lon="1.76064">
        <ele>195.28</ele>
        <time>2016-05-19T11:35:22Z</time>
      </trkpt>
      <trkpt lat="43.53355" lon="1.76066">
        <ele>199.13</ele>
        <time>2016-05-19T11:35:24Z</time>
      </trkpt>
      <trkpt lat="43.53354" lon="1.76069">
        <ele>202.49</ele>
        <time>2016-05-19T11:35:26Z</time>
      </trkpt>
      <trkpt lat="43.53353" lon="1.7607">
        <ele>205.86</ele>
        <time>2016-05-19T11:35:28Z</time>
      </trkpt>
      <trkpt lat="43.53352" lon="1.76075">
        <ele>210.19</ele>
        <time>2016-05-19T11:35:31Z</time>
      </trkpt>
      <trkpt lat="43.53349" lon="1.76076">
        <ele>214.51</ele>
        <time>2016-05-19T11:35:34Z</time>
      </trkpt>
      <trkpt lat="43.53346" lon="1.76079">
        <ele>217.88</ele>
        <time>2016-05-19T11:35:37Z</time>
      </trkpt>
      <trkpt lat="43.53344" lon="1.76084">
        <ele>221.24</ele>
        <time>2016-05-19T11:35:40Z</time>
      </trkpt>
      <trkpt lat="43.53341" lon="1.76088">
        <ele>225.09</ele>
        <time>2016-05-19T11:35:44Z</time>
      </trkpt>
      <trkpt lat="43.53339" lon="1.76093">
        <ele>228.45</ele>
        <time>2016-05-19T11:35:48Z</time>
      </trkpt>
      <trkpt lat="43.53337" lon="1.76097">
        <ele>231.81</ele>
        <time>2016-05-19T11:35:52Z</time>
      </trkpt>
      <trkpt lat="43.53336" lon="1.76098">
        <ele>231.81</ele>
        <time>2016-05-19T11:35:53Z</time>
      </trkpt>
      <trkpt lat="43.53332" lon="1.76106">
        <ele>235.66</ele>
        <time>2016-05-19T11:35:58Z</time>
      </trkpt>
      <trkpt lat="43.53331" lon="1.76107">
        <ele>235.66</ele>
        <time>2016-05-19T11:35:59Z</time>
      </trkpt>
      <trkpt lat="43.53328" lon="1.76116">
        <ele>237.1</ele>
        <time>2016-05-19T11:36:02Z</time>
      </trkpt>
      <trkpt lat="43.53327" lon="1.76124">
        <ele>239.02</ele>
        <time>2016-05-19T11:36:07Z</time>
      </trkpt>
      <trkpt lat="43.53316" lon="1.76138">
        <ele>242.39</ele>
        <time>2016-05-19T11:36:21Z</time>
      </trkpt>
      <trkpt lat="43.53314" lon="1.7614">
        <ele>242.87</ele>
        <time>2016-05-19T11:36:23Z</time>
      </trkpt>
      <trkpt lat="43.53303" lon="1.76144">
        <ele>243.35</ele>
        <time>2016-05-19T11:36:34Z</time>
      </trkpt>
      <trkpt lat="43.53284" lon="1.76151">
        <ele>243.83</ele>
        <time>2016-05-19T11:36:50Z</time>
      </trkpt>
      <trkpt lat="43.53257" lon="1.76153">
        <ele>244.79</ele>
        <time>2016-05-19T11:37:11Z</time>
      </trkpt>
      <trkpt lat="43.53225" lon="1.76156">
        <ele>243.35</ele>
        <time>2016-05-19T11:37:35Z</time>
      </trkpt>
      <trkpt lat="43.53217" lon="1.76148">
        <ele>243.83</ele>
        <time>2016-05-19T11:37:42Z</time>
      </trkpt>
      <trkpt lat="43.53202" lon="1.76139">
        <ele>244.79</ele>
        <time>2016-05-19T11:37:54Z</time>
      </trkpt>
      <trkpt lat="43.53189" lon="1.76126">
        <ele>245.27</ele>
        <time>2016-05-19T11:38:09Z</time>
      </trkpt>
      <trkpt lat="43.53174" lon="1.76104">
        <ele>247.2</ele>
        <time>2016-05-19T11:38:25Z</time>
      </trkpt>
      <trkpt lat="43.53171" lon="1.76098">
        <ele>247.68</ele>
        <time>2016-05-19T11:38:29Z</time>
      </trkpt>
      <trkpt lat="43.53167" lon="1.76087">
        <ele>245.75</ele>
        <time>2016-05-19T11:38:35Z</time>
      </trkpt>
      <trkpt lat="43.53153" lon="1.76052">
        <ele>246.72</ele>
        <time>2016-05-19T11:38:50Z</time>
      </trkpt>
      <trkpt lat="43.53148" lon="1.7603">
        <ele>247.2</ele>
        <time>2016-05-19T11:39:04Z</time>
      </trkpt>
      <trkpt lat="43.5314" lon="1.76011">
        <ele>248.64</ele>
        <time>2016-05-19T11:39:19Z</time>
      </trkpt>
      <trkpt lat="43.53123" lon="1.75989">
        <ele>249.6</ele>
        <time>2016-05-19T11:39:37Z</time>
      </trkpt>
      <trkpt lat="43.53113" lon="1.75974">
        <ele>252.48</ele>
        <time>2016-05-19T11:39:49Z</time>
      </trkpt>
      <trkpt lat="43.53108" lon="1.75971">
        <ele>252.96</ele>
        <time>2016-05-19T11:39:52Z</time>
      </trkpt>
      <trkpt lat="43.53102" lon="1.75963">
        <ele>252.48</ele>
        <time>2016-05-19T11:39:59Z</time>
      </trkpt>
      <trkpt lat="43.53086" lon="1.75946">
        <ele>255.37</ele>
        <time>2016-05-19T11:40:18Z</time>
      </trkpt>
      <trkpt lat="43.5307" lon="1.75926">
        <ele>258.73</ele>
        <time>2016-05-19T11:40:36Z</time>
      </trkpt>
      <trkpt lat="43.53064" lon="1.7591">
        <ele>261.14</ele>
        <time>2016-05-19T11:40:53Z</time>
      </trkpt>
      <trkpt lat="43.53054" lon="1.75909">
        <ele>260.65</ele>
        <time>2016-05-19T11:41:08Z</time>
      </trkpt>
      <trkpt lat="43.53038" lon="1.75927">
        <ele>261.62</ele>
        <time>2016-05-19T11:41:28Z</time>
      </trkpt>
      <trkpt lat="43.53031" lon="1.75935">
        <ele>262.1</ele>
        <time>2016-05-19T11:41:33Z</time>
      </trkpt>
      <trkpt lat="43.53006" lon="1.75971">
        <ele>264.98</ele>
        <time>2016-05-19T11:41:57Z</time>
      </trkpt>
      <trkpt lat="43.5299" lon="1.75993">
        <ele>267.86</ele>
        <time>2016-05-19T11:42:13Z</time>
      </trkpt>
      <trkpt lat="43.52989" lon="1.75993">
        <ele>267.86</ele>
        <time>2016-05-19T11:42:14Z</time>
      </trkpt>
      <trkpt lat="43.52983" lon="1.75993">
        <ele>266.9</ele>
        <time>2016-05-19T11:42:20Z</time>
      </trkpt>
      <trkpt lat="43.5297" lon="1.75978">
        <ele>267.86</ele>
        <time>2016-05-19T11:42:32Z</time>
      </trkpt>
      <trkpt lat="43.52968" lon="1.75975">
        <ele>267.38</ele>
        <time>2016-05-19T11:42:37Z</time>
      </trkpt>
      <trkpt lat="43.52955" lon="1.75968">
        <ele>267.86</ele>
        <time>2016-05-19T11:42:48Z</time>
      </trkpt>
      <trkpt lat="43.5295" lon="1.75965">
        <ele>268.35</ele>
        <time>2016-05-19T11:42:51Z</time>
      </trkpt>
      <trkpt lat="43.52938" lon="1.75956">
        <ele>266.9</ele>
        <time>2016-05-19T11:43:03Z</time>
      </trkpt>
      <trkpt lat="43.52934" lon="1.75955">
        <ele>267.38</ele>
        <time>2016-05-19T11:43:06Z</time>
      </trkpt>
      <trkpt lat="43.52926" lon="1.75945">
        <ele>267.38</ele>
        <time>2016-05-19T11:43:13Z</time>
      </trkpt>
      <trkpt lat="43.52918" lon="1.75938">
        <ele>267.86</ele>
        <time>2016-05-19T11:43:24Z</time>
      </trkpt>
      <trkpt lat="43.52917" lon="1.75938">
        <ele>267.38</ele>
        <time>2016-05-19T11:43:26Z</time>
      </trkpt>
      <trkpt lat="43.52913" lon="1.75934">
        <ele>267.38</ele>
        <time>2016-05-19T11:43:32Z</time>
      </trkpt>
      <trkpt lat="43.52908" lon="1.75935">
        <ele>267.38</ele>
        <time>2016-05-19T11:43:34Z</time>
      </trkpt>
      <trkpt lat="43.52907" lon="1.75923">
        <ele>267.86</ele>
        <time>2016-05-19T11:43:41Z</time>
      </trkpt>
      <trkpt lat="43.52906" lon="1.75914">
        <ele>267.38</ele>
        <time>2016-05-19T11:43:48Z</time>
      </trkpt>
      <trkpt lat="43.52904" lon="1.75911">
        <ele>267.86</ele>
        <time>2016-05-19T11:43:53Z</time>
      </trkpt>
      <trkpt lat="43.52902" lon="1.75905">
        <ele>267.86</ele>
        <time>2016-05-19T11:43:55Z</time>
      </trkpt>
      <trkpt lat="43.52899" lon="1.75894">
        <ele>268.35</ele>
        <time>2016-05-19T11:44:04Z</time>
      </trkpt>
      <trkpt lat="43.52896" lon="1.75888">
        <ele>267.86</ele>
        <time>2016-05-19T11:44:09Z</time>
      </trkpt>
      <trkpt lat="43.52891" lon="1.75877">
        <ele>270.27</ele>
        <time>2016-05-19T11:44:17Z</time>
      </trkpt>
      <trkpt lat="43.52866" lon="1.75868">
        <ele>268.35</ele>
        <time>2016-05-19T11:44:34Z</time>
      </trkpt>
      <trkpt lat="43.52855" lon="1.75867">
        <ele>268.83</ele>
        <time>2016-05-19T11:44:36Z</time>
      </trkpt>
      <trkpt lat="43.52838" lon="1.75848">
        <ele>268.83</ele>
        <time>2016-05-19T11:44:42Z</time>
      </trkpt>
      <trkpt lat="43.5284" lon="1.75835">
        <ele>269.31</ele>
        <time>2016-05-19T11:44:50Z</time>
      </trkpt>
      <trkpt lat="43.52837" lon="1.75831">
        <ele>268.83</ele>
        <time>2016-05-19T11:44:55Z</time>
      </trkpt>
      <trkpt lat="43.52823" lon="1.75818">
        <ele>269.31</ele>
        <time>2016-05-19T11:45:10Z</time>
      </trkpt>
      <trkpt lat="43.52817" lon="1.75815">
        <ele>268.35</ele>
        <time>2016-05-19T11:45:16Z</time>
      </trkpt>
      <trkpt lat="43.5281" lon="1.75816">
        <ele>268.35</ele>
        <time>2016-05-19T11:45:20Z</time>
      </trkpt>
      <trkpt lat="43.52802" lon="1.75811">
        <ele>267.38</ele>
        <time>2016-05-19T11:45:26Z</time>
      </trkpt>
      <trkpt lat="43.52784" lon="1.75805">
        <ele>265.94</ele>
        <time>2016-05-19T11:45:40Z</time>
      </trkpt>
      <trkpt lat="43.52778" lon="1.75803">
        <ele>264.98</ele>
        <time>2016-05-19T11:45:44Z</time>
      </trkpt>
      <trkpt lat="43.52764" lon="1.75796">
        <ele>264.98</ele>
        <time>2016-05-19T11:45:55Z</time>
      </trkpt>
      <trkpt lat="43.52753" lon="1.75791">
        <ele>264.98</ele>
        <time>2016-05-19T11:46:03Z</time>
      </trkpt>
      <trkpt lat="43.52735" lon="1.75784">
        <ele>263.54</ele>
        <time>2016-05-19T11:46:17Z</time>
      </trkpt>
      <trkpt lat="43.5273" lon="1.75784">
        <ele>263.54</ele>
        <time>2016-05-19T11:46:20Z</time>
      </trkpt>
      <trkpt lat="43.52728" lon="1.75785">
        <ele>263.06</ele>
        <time>2016-05-19T11:46:22Z</time>
      </trkpt>
      <trkpt lat="43.52726" lon="1.75788">
        <ele>263.06</ele>
        <time>2016-05-19T11:46:23Z</time>
      </trkpt>
      <trkpt lat="43.52725" lon="1.7579">
        <ele>263.06</ele>
        <time>2016-05-19T11:46:24Z</time>
      </trkpt>
      <trkpt lat="43.52724" lon="1.75791">
        <ele>262.58</ele>
        <time>2016-05-19T11:46:25Z</time>
      </trkpt>
      <trkpt lat="43.52721" lon="1.75788">
        <ele>263.06</ele>
        <time>2016-05-19T11:46:27Z</time>
      </trkpt>
      <trkpt lat="43.52705" lon="1.75778">
        <ele>264.02</ele>
        <time>2016-05-19T11:46:40Z</time>
      </trkpt>
      <trkpt lat="43.52703" lon="1.75776">
        <ele>262.58</ele>
        <time>2016-05-19T11:46:42Z</time>
      </trkpt>
      <trkpt lat="43.52693" lon="1.75776">
        <ele>261.62</ele>
        <time>2016-05-19T11:46:48Z</time>
      </trkpt>
      <trkpt lat="43.52679" lon="1.75766">
        <ele>260.17</ele>
        <time>2016-05-19T11:46:59Z</time>
      </trkpt>
      <trkpt lat="43.52669" lon="1.7576">
        <ele>259.21</ele>
        <time>2016-05-19T11:47:07Z</time>
      </trkpt>
      <trkpt lat="43.52662" lon="1.75757">
        <ele>259.21</ele>
        <time>2016-05-19T11:47:15Z</time>
      </trkpt>
      <trkpt lat="43.52659" lon="1.75752">
        <ele>259.69</ele>
        <time>2016-05-19T11:47:20Z</time>
      </trkpt>
      <trkpt lat="43.52636" lon="1.7574">
        <ele>259.21</ele>
        <time>2016-05-19T11:47:35Z</time>
      </trkpt>
      <trkpt lat="43.52633" lon="1.75739">
        <ele>258.25</ele>
        <time>2016-05-19T11:47:37Z</time>
      </trkpt>
      <trkpt lat="43.52632" lon="1.75738">
        <ele>258.73</ele>
        <time>2016-05-19T11:47:38Z</time>
      </trkpt>
      <trkpt lat="43.52631" lon="1.75738">
        <ele>258.25</ele>
        <time>2016-05-19T11:47:39Z</time>
      </trkpt>
      <trkpt lat="43.52616" lon="1.75732">
        <ele>257.77</ele>
        <time>2016-05-19T11:47:48Z</time>
      </trkpt>
      <trkpt lat="43.52599" lon="1.75729">
        <ele>257.77</ele>
        <time>2016-05-19T11:48:00Z</time>
      </trkpt>
      <trkpt lat="43.52595" lon="1.75727">
        <ele>256.81</ele>
        <time>2016-05-19T11:48:04Z</time>
      </trkpt>
      <trkpt lat="43.52586" lon="1.75724">
        <ele>256.33</ele>
        <time>2016-05-19T11:48:12Z</time>
      </trkpt>
      <trkpt lat="43.52585" lon="1.75723">
        <ele>255.85</ele>
        <time>2016-05-19T11:48:13Z</time>
      </trkpt>
      <trkpt lat="43.52584" lon="1.75723">
        <ele>255.37</ele>
        <time>2016-05-19T11:48:14Z</time>
      </trkpt>
      <trkpt lat="43.52583" lon="1.75723">
        <ele>255.37</ele>
        <time>2016-05-19T11:48:15Z</time>
      </trkpt>
      <trkpt lat="43.52582" lon="1.75723">
        <ele>254.89</ele>
        <time>2016-05-19T11:48:16Z</time>
      </trkpt>
      <trkpt lat="43.52567" lon="1.75715">
        <ele>253.93</ele>
        <time>2016-05-19T11:48:29Z</time>
      </trkpt>
      <trkpt lat="43.52551" lon="1.7571">
        <ele>252.96</ele>
        <time>2016-05-19T11:48:40Z</time>
      </trkpt>
      <trkpt lat="43.52546" lon="1.75706">
        <ele>253.44</ele>
        <time>2016-05-19T11:48:43Z</time>
      </trkpt>
      <trkpt lat="43.52544" lon="1.75704">
        <ele>252.96</ele>
        <time>2016-05-19T11:48:44Z</time>
      </trkpt>
      <trkpt lat="43.52524" lon="1.75692">
        <ele>252</ele>
        <time>2016-05-19T11:48:55Z</time>
      </trkpt>
      <trkpt lat="43.52519" lon="1.75693">
        <ele>251.52</ele>
        <time>2016-05-19T11:48:59Z</time>
      </trkpt>
      <trkpt lat="43.52518" lon="1.75691">
        <ele>251.52</ele>
        <time>2016-05-19T11:49:00Z</time>
      </trkpt>
      <trkpt lat="43.52516" lon="1.7569">
        <ele>251.52</ele>
        <time>2016-05-19T11:49:01Z</time>
      </trkpt>
      <trkpt lat="43.52515" lon="1.75689">
        <ele>251.52</ele>
        <time>2016-05-19T11:49:02Z</time>
      </trkpt>
      <trkpt lat="43.52514" lon="1.75688">
        <ele>251.52</ele>
        <time>2016-05-19T11:49:03Z</time>
      </trkpt>
      <trkpt lat="43.52514" lon="1.75688">
        <ele>252</ele>
        <time>2016-05-19T11:49:04Z</time>
      </trkpt>
      <trkpt lat="43.52512" lon="1.75687">
        <ele>251.04</ele>
        <time>2016-05-19T11:49:05Z</time>
      </trkpt>
      <trkpt lat="43.5251" lon="1.75687">
        <ele>251.04</ele>
        <time>2016-05-19T11:49:06Z</time>
      </trkpt>
      <trkpt lat="43.52509" lon="1.75687">
        <ele>251.04</ele>
        <time>2016-05-19T11:49:07Z</time>
      </trkpt>
      <trkpt lat="43.52508" lon="1.75687">
        <ele>251.04</ele>
        <time>2016-05-19T11:49:08Z</time>
      </trkpt>
      <trkpt lat="43.52503" lon="1.75682">
        <ele>250.08</ele>
        <time>2016-05-19T11:49:13Z</time>
      </trkpt>
      <trkpt lat="43.52501" lon="1.7568">
        <ele>250.56</ele>
        <time>2016-05-19T11:49:14Z</time>
      </trkpt>
      <trkpt lat="43.52499" lon="1.75678">
        <ele>250.56</ele>
        <time>2016-05-19T11:49:17Z</time>
      </trkpt>
      <trkpt lat="43.52497" lon="1.75678">
        <ele>249.6</ele>
        <time>2016-05-19T11:49:18Z</time>
      </trkpt>
      <trkpt lat="43.52491" lon="1.75675">
        <ele>249.6</ele>
        <time>2016-05-19T11:49:22Z</time>
      </trkpt>
      <trkpt lat="43.52484" lon="1.75672">
        <ele>249.6</ele>
        <time>2016-05-19T11:49:31Z</time>
      </trkpt>
      <trkpt lat="43.5248" lon="1.75667">
        <ele>249.6</ele>
        <time>2016-05-19T11:49:34Z</time>
      </trkpt>
      <trkpt lat="43.52472" lon="1.75663">
        <ele>249.6</ele>
        <time>2016-05-19T11:49:42Z</time>
      </trkpt>
      <trkpt lat="43.5247" lon="1.75663">
        <ele>249.12</ele>
        <time>2016-05-19T11:49:43Z</time>
      </trkpt>
      <trkpt lat="43.52464" lon="1.75659">
        <ele>248.64</ele>
        <time>2016-05-19T11:49:48Z</time>
      </trkpt>
      <trkpt lat="43.5245" lon="1.75653">
        <ele>248.16</ele>
        <time>2016-05-19T11:49:57Z</time>
      </trkpt>
      <trkpt lat="43.52437" lon="1.75644">
        <ele>247.2</ele>
        <time>2016-05-19T11:50:07Z</time>
      </trkpt>
      <trkpt lat="43.52428" lon="1.75636">
        <ele>247.68</ele>
        <time>2016-05-19T11:50:13Z</time>
      </trkpt>
      <trkpt lat="43.52412" lon="1.75622">
        <ele>248.16</ele>
        <time>2016-05-19T11:50:23Z</time>
      </trkpt>
      <trkpt lat="43.52399" lon="1.7561">
        <ele>248.16</ele>
        <time>2016-05-19T11:50:34Z</time>
      </trkpt>
      <trkpt lat="43.52384" lon="1.75601">
        <ele>249.12</ele>
        <time>2016-05-19T11:50:47Z</time>
      </trkpt>
      <trkpt lat="43.52381" lon="1.75598">
        <ele>249.6</ele>
        <time>2016-05-19T11:50:49Z</time>
      </trkpt>
      <trkpt lat="43.5238" lon="1.75597">
        <ele>249.6</ele>
        <time>2016-05-19T11:50:50Z</time>
      </trkpt>
      <trkpt lat="43.5237" lon="1.75592">
        <ele>250.56</ele>
        <time>2016-05-19T11:50:58Z</time>
      </trkpt>
      <trkpt lat="43.52352" lon="1.75595">
        <ele>251.52</ele>
        <time>2016-05-19T11:51:09Z</time>
      </trkpt>
      <trkpt lat="43.5234" lon="1.75606">
        <ele>252.48</ele>
        <time>2016-05-19T11:51:22Z</time>
      </trkpt>
      <trkpt lat="43.52319" lon="1.75621">
        <ele>253.44</ele>
        <time>2016-05-19T11:51:36Z</time>
      </trkpt>
      <trkpt lat="43.52317" lon="1.75621">
        <ele>253.44</ele>
        <time>2016-05-19T11:51:37Z</time>
      </trkpt>
      <trkpt lat="43.52307" lon="1.75627">
        <ele>253.93</ele>
        <time>2016-05-19T11:51:45Z</time>
      </trkpt>
      <trkpt lat="43.52297" lon="1.75636">
        <ele>254.41</ele>
        <time>2016-05-19T11:51:56Z</time>
      </trkpt>
      <trkpt lat="43.52292" lon="1.7564">
        <ele>254.89</ele>
        <time>2016-05-19T11:52:01Z</time>
      </trkpt>
      <trkpt lat="43.52276" lon="1.75651">
        <ele>254.41</ele>
        <time>2016-05-19T11:52:12Z</time>
      </trkpt>
      <trkpt lat="43.52276" lon="1.75652">
        <ele>254.41</ele>
        <time>2016-05-19T11:52:13Z</time>
      </trkpt>
      <trkpt lat="43.52274" lon="1.75653">
        <ele>254.89</ele>
        <time>2016-05-19T11:52:14Z</time>
      </trkpt>
      <trkpt lat="43.52273" lon="1.75653">
        <ele>254.89</ele>
        <time>2016-05-19T11:52:16Z</time>
      </trkpt>
      <trkpt lat="43.52271" lon="1.75654">
        <ele>254.89</ele>
        <time>2016-05-19T11:52:17Z</time>
      </trkpt>
      <trkpt lat="43.52264" lon="1.75655">
        <ele>255.37</ele>
        <time>2016-05-19T11:52:20Z</time>
      </trkpt>
      <trkpt lat="43.52262" lon="1.75658">
        <ele>254.89</ele>
        <time>2016-05-19T11:52:22Z</time>
      </trkpt>
      <trkpt lat="43.5226" lon="1.75658">
        <ele>254.89</ele>
        <time>2016-05-19T11:52:23Z</time>
      </trkpt>
      <trkpt lat="43.52247" lon="1.75667">
        <ele>255.37</ele>
        <time>2016-05-19T11:52:32Z</time>
      </trkpt>
      <trkpt lat="43.52245" lon="1.75669">
        <ele>255.85</ele>
        <time>2016-05-19T11:52:33Z</time>
      </trkpt>
      <trkpt lat="43.52243" lon="1.75669">
        <ele>255.37</ele>
        <time>2016-05-19T11:52:34Z</time>
      </trkpt>
      <trkpt lat="43.52242" lon="1.7567">
        <ele>255.85</ele>
        <time>2016-05-19T11:52:35Z</time>
      </trkpt>
      <trkpt lat="43.52241" lon="1.75671">
        <ele>255.37</ele>
        <time>2016-05-19T11:52:36Z</time>
      </trkpt>
      <trkpt lat="43.52235" lon="1.75675">
        <ele>255.37</ele>
        <time>2016-05-19T11:52:41Z</time>
      </trkpt>
      <trkpt lat="43.52226" lon="1.75676">
        <ele>254.89</ele>
        <time>2016-05-19T11:52:53Z</time>
      </trkpt>
      <trkpt lat="43.52222" lon="1.75677">
        <ele>254.41</ele>
        <time>2016-05-19T11:53:05Z</time>
      </trkpt>
      <trkpt lat="43.52222" lon="1.75684">
        <ele>254.89</ele>
        <time>2016-05-19T11:53:54Z</time>
      </trkpt>
      <trkpt lat="43.52218" lon="1.75689">
        <ele>254.89</ele>
        <time>2016-05-19T11:53:58Z</time>
      </trkpt>
      <trkpt lat="43.52203" lon="1.75712">
        <ele>254.41</ele>
        <time>2016-05-19T11:54:13Z</time>
      </trkpt>
      <trkpt lat="43.52194" lon="1.75727">
        <ele>253.44</ele>
        <time>2016-05-19T11:54:26Z</time>
      </trkpt>
      <trkpt lat="43.52179" lon="1.75748">
        <ele>252.96</ele>
        <time>2016-05-19T11:54:39Z</time>
      </trkpt>
      <trkpt lat="43.52178" lon="1.7575">
        <ele>252.96</ele>
        <time>2016-05-19T11:54:40Z</time>
      </trkpt>
      <trkpt lat="43.52177" lon="1.75752">
        <ele>252.96</ele>
        <time>2016-05-19T11:54:41Z</time>
      </trkpt>
      <trkpt lat="43.52176" lon="1.75755">
        <ele>253.44</ele>
        <time>2016-05-19T11:54:42Z</time>
      </trkpt>
      <trkpt lat="43.52175" lon="1.75757">
        <ele>253.44</ele>
        <time>2016-05-19T11:54:43Z</time>
      </trkpt>
      <trkpt lat="43.52174" lon="1.75758">
        <ele>252.96</ele>
        <time>2016-05-19T11:54:44Z</time>
      </trkpt>
      <trkpt lat="43.52172" lon="1.7576">
        <ele>253.44</ele>
        <time>2016-05-19T11:54:45Z</time>
      </trkpt>
      <trkpt lat="43.52168" lon="1.75765">
        <ele>253.44</ele>
        <time>2016-05-19T11:54:48Z</time>
      </trkpt>
      <trkpt lat="43.52169" lon="1.75767">
        <ele>252.96</ele>
        <time>2016-05-19T11:54:59Z</time>
      </trkpt>
      <trkpt lat="43.52168" lon="1.75768">
        <ele>252.96</ele>
        <time>2016-05-19T11:55:00Z</time>
      </trkpt>
      <trkpt lat="43.52162" lon="1.75771">
        <ele>252.48</ele>
        <time>2016-05-19T11:55:05Z</time>
      </trkpt>
      <trkpt lat="43.5215" lon="1.75764">
        <ele>251.52</ele>
        <time>2016-05-19T11:55:13Z</time>
      </trkpt>
      <trkpt lat="43.52135" lon="1.75763">
        <ele>249.6</ele>
        <time>2016-05-19T11:55:21Z</time>
      </trkpt>
      <trkpt lat="43.52119" lon="1.75771">
        <ele>248.64</ele>
        <time>2016-05-19T11:55:31Z</time>
      </trkpt>
      <trkpt lat="43.52114" lon="1.75774">
        <ele>247.68</ele>
        <time>2016-05-19T11:55:36Z</time>
      </trkpt>
      <trkpt lat="43.52108" lon="1.75788">
        <ele>246.72</ele>
        <time>2016-05-19T11:55:44Z</time>
      </trkpt>
      <trkpt lat="43.52105" lon="1.75793">
        <ele>246.23</ele>
        <time>2016-05-19T11:55:46Z</time>
      </trkpt>
      <trkpt lat="43.52101" lon="1.75815">
        <ele>245.75</ele>
        <time>2016-05-19T11:55:57Z</time>
      </trkpt>
      <trkpt lat="43.52099" lon="1.75823">
        <ele>245.27</ele>
        <time>2016-05-19T11:56:00Z</time>
      </trkpt>
      <trkpt lat="43.52096" lon="1.7583">
        <ele>244.79</ele>
        <time>2016-05-19T11:56:04Z</time>
      </trkpt>
      <trkpt lat="43.52091" lon="1.75839">
        <ele>244.79</ele>
        <time>2016-05-19T11:56:14Z</time>
      </trkpt>
      <trkpt lat="43.52078" lon="1.75818">
        <ele>243.35</ele>
        <time>2016-05-19T11:56:28Z</time>
      </trkpt>
      <trkpt lat="43.52071" lon="1.75794">
        <ele>242.87</ele>
        <time>2016-05-19T11:56:38Z</time>
      </trkpt>
      <trkpt lat="43.52061" lon="1.75779">
        <ele>241.91</ele>
        <time>2016-05-19T11:56:49Z</time>
      </trkpt>
      <trkpt lat="43.52059" lon="1.75778">
        <ele>241.91</ele>
        <time>2016-05-19T11:56:51Z</time>
      </trkpt>
      <trkpt lat="43.52056" lon="1.75775">
        <ele>241.91</ele>
        <time>2016-05-19T11:56:54Z</time>
      </trkpt>
      <trkpt lat="43.52054" lon="1.75771">
        <ele>241.43</ele>
        <time>2016-05-19T11:56:58Z</time>
      </trkpt>
      <trkpt lat="43.52051" lon="1.7577">
        <ele>241.91</ele>
        <time>2016-05-19T11:57:00Z</time>
      </trkpt>
      <trkpt lat="43.52049" lon="1.75762">
        <ele>241.43</ele>
        <time>2016-05-19T11:57:06Z</time>
      </trkpt>
      <trkpt lat="43.52043" lon="1.75745">
        <ele>240.95</ele>
        <time>2016-05-19T11:57:15Z</time>
      </trkpt>
      <trkpt lat="43.52034" lon="1.75719">
        <ele>239.51</ele>
        <time>2016-05-19T11:57:27Z</time>
      </trkpt>
      <trkpt lat="43.52034" lon="1.75701">
        <ele>238.54</ele>
        <time>2016-05-19T11:57:36Z</time>
      </trkpt>
      <trkpt lat="43.52037" lon="1.75681">
        <ele>237.58</ele>
        <time>2016-05-19T11:57:45Z</time>
      </trkpt>
      <trkpt lat="43.5204" lon="1.75675">
        <ele>238.06</ele>
        <time>2016-05-19T11:58:00Z</time>
      </trkpt>
      <trkpt lat="43.52042" lon="1.75659">
        <ele>238.06</ele>
        <time>2016-05-19T11:58:13Z</time>
      </trkpt>
      <trkpt lat="43.5204" lon="1.75654">
        <ele>237.58</ele>
        <time>2016-05-19T11:58:17Z</time>
      </trkpt>
      <trkpt lat="43.5203" lon="1.75644">
        <ele>237.1</ele>
        <time>2016-05-19T11:58:27Z</time>
      </trkpt>
      <trkpt lat="43.52021" lon="1.75638">
        <ele>236.14</ele>
        <time>2016-05-19T11:58:35Z</time>
      </trkpt>
      <trkpt lat="43.52014" lon="1.75635">
        <ele>236.14</ele>
        <time>2016-05-19T11:58:40Z</time>
      </trkpt>
      <trkpt lat="43.52009" lon="1.75631">
        <ele>235.66</ele>
        <time>2016-05-19T11:58:44Z</time>
      </trkpt>
      <trkpt lat="43.51995" lon="1.75628">
        <ele>234.22</ele>
        <time>2016-05-19T11:58:55Z</time>
      </trkpt>
      <trkpt lat="43.51993" lon="1.75624">
        <ele>234.22</ele>
        <time>2016-05-19T11:58:57Z</time>
      </trkpt>
      <trkpt lat="43.51983" lon="1.75613">
        <ele>231.81</ele>
        <time>2016-05-19T11:59:07Z</time>
      </trkpt>
      <trkpt lat="43.51978" lon="1.75613">
        <ele>230.85</ele>
        <time>2016-05-19T11:59:12Z</time>
      </trkpt>
      <trkpt lat="43.51971" lon="1.75607">
        <ele>229.89</ele>
        <time>2016-05-19T11:59:16Z</time>
      </trkpt>
      <trkpt lat="43.51965" lon="1.75603">
        <ele>229.41</ele>
        <time>2016-05-19T11:59:19Z</time>
      </trkpt>
      <trkpt lat="43.51961" lon="1.75597">
        <ele>228.45</ele>
        <time>2016-05-19T11:59:24Z</time>
      </trkpt>
      <trkpt lat="43.5195" lon="1.75579">
        <ele>226.05</ele>
        <time>2016-05-19T11:59:33Z</time>
      </trkpt>
      <trkpt lat="43.51948" lon="1.75577">
        <ele>226.05</ele>
        <time>2016-05-19T11:59:35Z</time>
      </trkpt>
      <trkpt lat="43.5194" lon="1.75576">
        <ele>224.61</ele>
        <time>2016-05-19T11:59:44Z</time>
      </trkpt>
      <trkpt lat="43.51935" lon="1.75577">
        <ele>224.61</ele>
        <time>2016-05-19T11:59:48Z</time>
      </trkpt>
      <trkpt lat="43.51916" lon="1.75581">
        <ele>221.24</ele>
        <time>2016-05-19T12:00:03Z</time>
      </trkpt>
      <trkpt lat="43.51895" lon="1.7558">
        <ele>218.36</ele>
        <time>2016-05-19T12:00:18Z</time>
      </trkpt>
      <trkpt lat="43.5188" lon="1.75581">
        <ele>215.95</ele>
        <time>2016-05-19T12:00:31Z</time>
      </trkpt>
      <trkpt lat="43.51871" lon="1.75592">
        <ele>214.03</ele>
        <time>2016-05-19T12:00:37Z</time>
      </trkpt>
      <trkpt lat="43.51866" lon="1.75606">
        <ele>212.59</ele>
        <time>2016-05-19T12:00:44Z</time>
      </trkpt>
      <trkpt lat="43.51862" lon="1.75622">
        <ele>211.63</ele>
        <time>2016-05-19T12:00:52Z</time>
      </trkpt>
      <trkpt lat="43.51858" lon="1.75628">
        <ele>211.15</ele>
        <time>2016-05-19T12:00:55Z</time>
      </trkpt>
      <trkpt lat="43.51852" lon="1.75643">
        <ele>210.67</ele>
        <time>2016-05-19T12:01:02Z</time>
      </trkpt>
      <trkpt lat="43.51838" lon="1.75657">
        <ele>209.22</ele>
        <time>2016-05-19T12:01:12Z</time>
      </trkpt>
      <trkpt lat="43.51832" lon="1.75666">
        <ele>208.74</ele>
        <time>2016-05-19T12:01:23Z</time>
      </trkpt>
      <trkpt lat="43.51823" lon="1.75671">
        <ele>207.3</ele>
        <time>2016-05-19T12:01:30Z</time>
      </trkpt>
      <trkpt lat="43.51817" lon="1.75668">
        <ele>206.34</ele>
        <time>2016-05-19T12:01:37Z</time>
      </trkpt>
      <trkpt lat="43.51814" lon="1.75666">
        <ele>206.34</ele>
        <time>2016-05-19T12:01:39Z</time>
      </trkpt>
      <trkpt lat="43.5181" lon="1.75663">
        <ele>205.86</ele>
        <time>2016-05-19T12:01:42Z</time>
      </trkpt>
      <trkpt lat="43.51807" lon="1.75661">
        <ele>205.38</ele>
        <time>2016-05-19T12:01:44Z</time>
      </trkpt>
      <trkpt lat="43.5179" lon="1.75641">
        <ele>203.46</ele>
        <time>2016-05-19T12:01:57Z</time>
      </trkpt>
      <trkpt lat="43.51787" lon="1.75638">
        <ele>202.98</ele>
        <time>2016-05-19T12:01:59Z</time>
      </trkpt>
      <trkpt lat="43.51771" lon="1.75636">
        <ele>200.57</ele>
        <time>2016-05-19T12:02:11Z</time>
      </trkpt>
      <trkpt lat="43.51766" lon="1.75637">
        <ele>199.61</ele>
        <time>2016-05-19T12:02:15Z</time>
      </trkpt>
      <trkpt lat="43.5176" lon="1.75636">
        <ele>197.21</ele>
        <time>2016-05-19T12:02:25Z</time>
      </trkpt>
      <trkpt lat="43.51736" lon="1.75627">
        <ele>194.8</ele>
        <time>2016-05-19T12:02:40Z</time>
      </trkpt>
      <trkpt lat="43.51719" lon="1.75625">
        <ele>194.32</ele>
        <time>2016-05-19T12:02:49Z</time>
      </trkpt>
      <trkpt lat="43.51703" lon="1.75626">
        <ele>193.36</ele>
        <time>2016-05-19T12:03:00Z</time>
      </trkpt>
      <trkpt lat="43.51698" lon="1.75626">
        <ele>192.88</ele>
        <time>2016-05-19T12:03:04Z</time>
      </trkpt>
      <trkpt lat="43.51691" lon="1.75634">
        <ele>192.88</ele>
        <time>2016-05-19T12:03:10Z</time>
      </trkpt>
      <trkpt lat="43.51689" lon="1.75638">
        <ele>192.88</ele>
        <time>2016-05-19T12:03:12Z</time>
      </trkpt>
      <trkpt lat="43.51688" lon="1.75642">
        <ele>193.36</ele>
        <time>2016-05-19T12:03:34Z</time>
      </trkpt>
      <trkpt lat="43.5169" lon="1.7564">
        <ele>192.88</ele>
        <time>2016-05-19T12:03:54Z</time>
      </trkpt>
      <trkpt lat="43.51696" lon="1.75626">
        <ele>193.36</ele>
        <time>2016-05-19T12:04:12Z</time>
      </trkpt>
      <trkpt lat="43.51685" lon="1.75623">
        <ele>192.4</ele>
        <time>2016-05-19T12:04:40Z</time>
      </trkpt>
      <trkpt lat="43.51672" lon="1.75621">
        <ele>192.4</ele>
        <time>2016-05-19T12:05:01Z</time>
      </trkpt>
      <trkpt lat="43.51675" lon="1.75614">
        <ele>192.4</ele>
        <time>2016-05-19T12:05:21Z</time>
      </trkpt>
      <trkpt lat="43.51663" lon="1.75607">
        <ele>192.4</ele>
        <time>2016-05-19T12:06:05Z</time>
      </trkpt>
      <trkpt lat="43.51663" lon="1.75607">
        <ele>193.36</ele>
        <time>2016-05-19T12:06:14Z</time>
      </trkpt>
      <trkpt lat="43.51662" lon="1.75597">
        <ele>193.36</ele>
        <time>2016-05-19T12:06:18Z</time>
      </trkpt>
      <trkpt lat="43.51662" lon="1.75585">
        <ele>192.4</ele>
        <time>2016-05-19T12:06:25Z</time>
      </trkpt>
      <trkpt lat="43.51661" lon="1.75581">
        <ele>192.88</ele>
        <time>2016-05-19T12:06:27Z</time>
      </trkpt>
      <trkpt lat="43.51663" lon="1.75568">
        <ele>192.88</ele>
        <time>2016-05-19T12:06:33Z</time>
      </trkpt>
      <trkpt lat="43.51664" lon="1.75556">
        <ele>192.4</ele>
        <time>2016-05-19T12:06:39Z</time>
      </trkpt>
      <trkpt lat="43.51666" lon="1.75544">
        <ele>191.92</ele>
        <time>2016-05-19T12:06:50Z</time>
      </trkpt>
      <trkpt lat="43.51667" lon="1.75532">
        <ele>192.4</ele>
        <time>2016-05-19T12:06:54Z</time>
      </trkpt>
      <trkpt lat="43.51669" lon="1.75519">
        <ele>191.92</ele>
        <time>2016-05-19T12:06:59Z</time>
      </trkpt>
      <trkpt lat="43.51671" lon="1.75507">
        <ele>192.4</ele>
        <time>2016-05-19T12:07:08Z</time>
      </trkpt>
      <trkpt lat="43.51671" lon="1.75504">
        <ele>192.4</ele>
        <time>2016-05-19T12:07:10Z</time>
      </trkpt>
      <trkpt lat="43.51671" lon="1.75493">
        <ele>191.92</ele>
        <time>2016-05-19T12:07:16Z</time>
      </trkpt>
      <trkpt lat="43.51674" lon="1.75484">
        <ele>192.4</ele>
        <time>2016-05-19T12:07:20Z</time>
      </trkpt>
      <trkpt lat="43.51674" lon="1.7548">
        <ele>191.92</ele>
        <time>2016-05-19T12:07:22Z</time>
      </trkpt>
      <trkpt lat="43.51675" lon="1.75466">
        <ele>191.92</ele>
        <time>2016-05-19T12:07:29Z</time>
      </trkpt>
      <trkpt lat="43.51673" lon="1.75463">
        <ele>191.92</ele>
        <time>2016-05-19T12:07:31Z</time>
      </trkpt>
      <trkpt lat="43.51675" lon="1.75446">
        <ele>191.44</ele>
        <time>2016-05-19T12:07:39Z</time>
      </trkpt>
      <trkpt lat="43.51678" lon="1.7544">
        <ele>191.92</ele>
        <time>2016-05-19T12:07:41Z</time>
      </trkpt>
      <trkpt lat="43.5168" lon="1.75428">
        <ele>190.96</ele>
        <time>2016-05-19T12:07:54Z</time>
      </trkpt>
      <trkpt lat="43.5168" lon="1.75424">
        <ele>190.96</ele>
        <time>2016-05-19T12:07:57Z</time>
      </trkpt>
      <trkpt lat="43.51681" lon="1.75418">
        <ele>191.92</ele>
        <time>2016-05-19T12:08:00Z</time>
      </trkpt>
      <trkpt lat="43.51682" lon="1.75408">
        <ele>192.4</ele>
        <time>2016-05-19T12:08:04Z</time>
      </trkpt>
      <trkpt lat="43.5168" lon="1.75392">
        <ele>191.92</ele>
        <time>2016-05-19T12:08:15Z</time>
      </trkpt>
      <trkpt lat="43.51678" lon="1.75387">
        <ele>192.88</ele>
        <time>2016-05-19T12:08:19Z</time>
      </trkpt>
      <trkpt lat="43.51678" lon="1.75361">
        <ele>192.4</ele>
        <time>2016-05-19T12:08:28Z</time>
      </trkpt>
      <trkpt lat="43.51681" lon="1.75352">
        <ele>192.88</ele>
        <time>2016-05-19T12:08:32Z</time>
      </trkpt>
      <trkpt lat="43.51681" lon="1.75334">
        <ele>192.4</ele>
        <time>2016-05-19T12:08:40Z</time>
      </trkpt>
      <trkpt lat="43.51682" lon="1.75332">
        <ele>192.4</ele>
        <time>2016-05-19T12:08:42Z</time>
      </trkpt>
      <trkpt lat="43.51683" lon="1.75314">
        <ele>191.92</ele>
        <time>2016-05-19T12:08:56Z</time>
      </trkpt>
      <trkpt lat="43.51685" lon="1.75309">
        <ele>191.92</ele>
        <time>2016-05-19T12:08:59Z</time>
      </trkpt>
      <trkpt lat="43.51679" lon="1.75286">
        <ele>192.4</ele>
        <time>2016-05-19T12:09:11Z</time>
      </trkpt>
      <trkpt lat="43.51679" lon="1.75286">
        <ele>192.4</ele>
        <time>2016-05-19T12:09:12Z</time>
      </trkpt>
      <trkpt lat="43.51668" lon="1.75279">
        <ele>194.32</ele>
        <time>2016-05-19T12:09:25Z</time>
      </trkpt>
      <trkpt lat="43.51652" lon="1.75269">
        <ele>195.28</ele>
        <time>2016-05-19T12:09:35Z</time>
      </trkpt>
      <trkpt lat="43.51646" lon="1.75263">
        <ele>196.25</ele>
        <time>2016-05-19T12:09:41Z</time>
      </trkpt>
      <trkpt lat="43.51635" lon="1.75256">
        <ele>196.73</ele>
        <time>2016-05-19T12:09:51Z</time>
      </trkpt>
      <trkpt lat="43.51618" lon="1.75237">
        <ele>198.65</ele>
        <time>2016-05-19T12:10:07Z</time>
      </trkpt>
      <trkpt lat="43.51608" lon="1.75231">
        <ele>199.13</ele>
        <time>2016-05-19T12:10:16Z</time>
      </trkpt>
      <trkpt lat="43.51593" lon="1.75221">
        <ele>200.09</ele>
        <time>2016-05-19T12:10:28Z</time>
      </trkpt>
      <trkpt lat="43.51591" lon="1.75221">
        <ele>200.09</ele>
        <time>2016-05-19T12:10:29Z</time>
      </trkpt>
      <trkpt lat="43.51582" lon="1.75216">
        <ele>201.53</ele>
        <time>2016-05-19T12:10:35Z</time>
      </trkpt>
      <trkpt lat="43.51574" lon="1.75212">
        <ele>203.46</ele>
        <time>2016-05-19T12:10:47Z</time>
      </trkpt>
      <trkpt lat="43.51557" lon="1.75209">
        <ele>204.9</ele>
        <time>2016-05-19T12:10:59Z</time>
      </trkpt>
      <trkpt lat="43.51549" lon="1.75206">
        <ele>205.38</ele>
        <time>2016-05-19T12:11:06Z</time>
      </trkpt>
      <trkpt lat="43.51531" lon="1.752">
        <ele>205.38</ele>
        <time>2016-05-19T12:11:20Z</time>
      </trkpt>
      <trkpt lat="43.51521" lon="1.75194">
        <ele>203.94</ele>
        <time>2016-05-19T12:11:26Z</time>
      </trkpt>
      <trkpt lat="43.51517" lon="1.7519">
        <ele>203.94</ele>
        <time>2016-05-19T12:11:29Z</time>
      </trkpt>
      <trkpt lat="43.51513" lon="1.75189">
        <ele>202.98</ele>
        <time>2016-05-19T12:11:33Z</time>
      </trkpt>
      <trkpt lat="43.51497" lon="1.75186">
        <ele>204.9</ele>
        <time>2016-05-19T12:11:47Z</time>
      </trkpt>
      <trkpt lat="43.51482" lon="1.75192">
        <ele>204.42</ele>
        <time>2016-05-19T12:12:00Z</time>
      </trkpt>
      <trkpt lat="43.51469" lon="1.75181">
        <ele>205.38</ele>
        <time>2016-05-19T12:12:12Z</time>
      </trkpt>
      <trkpt lat="43.51465" lon="1.75179">
        <ele>203.94</ele>
        <time>2016-05-19T12:12:20Z</time>
      </trkpt>
      <trkpt lat="43.51458" lon="1.75179">
        <ele>203.46</ele>
        <time>2016-05-19T12:12:26Z</time>
      </trkpt>
      <trkpt lat="43.51451" lon="1.75181">
        <ele>205.38</ele>
        <time>2016-05-19T12:12:31Z</time>
      </trkpt>
      <trkpt lat="43.51435" lon="1.75179">
        <ele>206.34</ele>
        <time>2016-05-19T12:12:44Z</time>
      </trkpt>
      <trkpt lat="43.51417" lon="1.75172">
        <ele>206.82</ele>
        <time>2016-05-19T12:12:58Z</time>
      </trkpt>
      <trkpt lat="43.51412" lon="1.75171">
        <ele>207.78</ele>
        <time>2016-05-19T12:13:02Z</time>
      </trkpt>
      <trkpt lat="43.51401" lon="1.75169">
        <ele>204.9</ele>
        <time>2016-05-19T12:13:10Z</time>
      </trkpt>
      <trkpt lat="43.51398" lon="1.7517">
        <ele>204.9</ele>
        <time>2016-05-19T12:13:12Z</time>
      </trkpt>
      <trkpt lat="43.51393" lon="1.7517">
        <ele>205.38</ele>
        <time>2016-05-19T12:13:17Z</time>
      </trkpt>
      <trkpt lat="43.51371" lon="1.75166">
        <ele>204.9</ele>
        <time>2016-05-19T12:13:32Z</time>
      </trkpt>
      <trkpt lat="43.51365" lon="1.75165">
        <ele>204.9</ele>
        <time>2016-05-19T12:13:37Z</time>
      </trkpt>
      <trkpt lat="43.51351" lon="1.75159">
        <ele>204.9</ele>
        <time>2016-05-19T12:13:48Z</time>
      </trkpt>
      <trkpt lat="43.51335" lon="1.75154">
        <ele>203.94</ele>
        <time>2016-05-19T12:13:59Z</time>
      </trkpt>
      <trkpt lat="43.51332" lon="1.75153">
        <ele>203.94</ele>
        <time>2016-05-19T12:14:01Z</time>
      </trkpt>
      <trkpt lat="43.51328" lon="1.75152">
        <ele>205.86</ele>
        <time>2016-05-19T12:14:04Z</time>
      </trkpt>
      <trkpt lat="43.51325" lon="1.75148">
        <ele>205.38</ele>
        <time>2016-05-19T12:14:10Z</time>
      </trkpt>
      <trkpt lat="43.51321" lon="1.75147">
        <ele>204.9</ele>
        <time>2016-05-19T12:14:18Z</time>
      </trkpt>
      <trkpt lat="43.51318" lon="1.75145">
        <ele>202.98</ele>
        <time>2016-05-19T12:14:21Z</time>
      </trkpt>
      <trkpt lat="43.51305" lon="1.75133">
        <ele>203.46</ele>
        <time>2016-05-19T12:14:34Z</time>
      </trkpt>
      <trkpt lat="43.51304" lon="1.75132">
        <ele>203.46</ele>
        <time>2016-05-19T12:14:36Z</time>
      </trkpt>
      <trkpt lat="43.51309" lon="1.75106">
        <ele>203.94</ele>
        <time>2016-05-19T12:14:48Z</time>
      </trkpt>
      <trkpt lat="43.51311" lon="1.75104">
        <ele>203.94</ele>
        <time>2016-05-19T12:14:50Z</time>
      </trkpt>
      <trkpt lat="43.51316" lon="1.75091">
        <ele>202.49</ele>
        <time>2016-05-19T12:15:01Z</time>
      </trkpt>
      <trkpt lat="43.51319" lon="1.75085">
        <ele>202.49</ele>
        <time>2016-05-19T12:15:04Z</time>
      </trkpt>
      <trkpt lat="43.51324" lon="1.75079">
        <ele>202.49</ele>
        <time>2016-05-19T12:15:09Z</time>
      </trkpt>
      <trkpt lat="43.5133" lon="1.75061">
        <ele>201.53</ele>
        <time>2016-05-19T12:15:20Z</time>
      </trkpt>
      <trkpt lat="43.51331" lon="1.75059">
        <ele>201.53</ele>
        <time>2016-05-19T12:15:21Z</time>
      </trkpt>
      <trkpt lat="43.51329" lon="1.75057">
        <ele>201.05</ele>
        <time>2016-05-19T12:15:23Z</time>
      </trkpt>
      <trkpt lat="43.51331" lon="1.75046">
        <ele>201.05</ele>
        <time>2016-05-19T12:15:29Z</time>
      </trkpt>
      <trkpt lat="43.51338" lon="1.75018">
        <ele>200.57</ele>
        <time>2016-05-19T12:15:41Z</time>
      </trkpt>
      <trkpt lat="43.51341" lon="1.75011">
        <ele>201.05</ele>
        <time>2016-05-19T12:15:45Z</time>
      </trkpt>
      <trkpt lat="43.51348" lon="1.74988">
        <ele>200.09</ele>
        <time>2016-05-19T12:15:56Z</time>
      </trkpt>
      <trkpt lat="43.51354" lon="1.74969">
        <ele>200.09</ele>
        <time>2016-05-19T12:16:06Z</time>
      </trkpt>
      <trkpt lat="43.51361" lon="1.74953">
        <ele>200.09</ele>
        <time>2016-05-19T12:16:17Z</time>
      </trkpt>
      <trkpt lat="43.51362" lon="1.74951">
        <ele>200.57</ele>
        <time>2016-05-19T12:16:18Z</time>
      </trkpt>
      <trkpt lat="43.51364" lon="1.7494">
        <ele>201.05</ele>
        <time>2016-05-19T12:16:24Z</time>
      </trkpt>
      <trkpt lat="43.51369" lon="1.74926">
        <ele>201.05</ele>
        <time>2016-05-19T12:16:33Z</time>
      </trkpt>
      <trkpt lat="43.51377" lon="1.74906">
        <ele>200.57</ele>
        <time>2016-05-19T12:16:44Z</time>
      </trkpt>
      <trkpt lat="43.51379" lon="1.74895">
        <ele>201.05</ele>
        <time>2016-05-19T12:16:52Z</time>
      </trkpt>
      <trkpt lat="43.5138" lon="1.74889">
        <ele>200.57</ele>
        <time>2016-05-19T12:16:55Z</time>
      </trkpt>
      <trkpt lat="43.51381" lon="1.74885">
        <ele>200.57</ele>
        <time>2016-05-19T12:16:57Z</time>
      </trkpt>
      <trkpt lat="43.51383" lon="1.74878">
        <ele>200.57</ele>
        <time>2016-05-19T12:17:02Z</time>
      </trkpt>
      <trkpt lat="43.51389" lon="1.74854">
        <ele>200.57</ele>
        <time>2016-05-19T12:17:14Z</time>
      </trkpt>
      <trkpt lat="43.5139" lon="1.74849">
        <ele>200.09</ele>
        <time>2016-05-19T12:17:18Z</time>
      </trkpt>
      <trkpt lat="43.51393" lon="1.74844">
        <ele>199.61</ele>
        <time>2016-05-19T12:17:21Z</time>
      </trkpt>
      <trkpt lat="43.51395" lon="1.74836">
        <ele>199.13</ele>
        <time>2016-05-19T12:17:24Z</time>
      </trkpt>
      <trkpt lat="43.51398" lon="1.74828">
        <ele>199.61</ele>
        <time>2016-05-19T12:17:27Z</time>
      </trkpt>
      <trkpt lat="43.51403" lon="1.74815">
        <ele>198.65</ele>
        <time>2016-05-19T12:17:33Z</time>
      </trkpt>
      <trkpt lat="43.51408" lon="1.74801">
        <ele>198.17</ele>
        <time>2016-05-19T12:17:38Z</time>
      </trkpt>
      <trkpt lat="43.51414" lon="1.74783">
        <ele>197.69</ele>
        <time>2016-05-19T12:17:47Z</time>
      </trkpt>
      <trkpt lat="43.51417" lon="1.74775">
        <ele>198.17</ele>
        <time>2016-05-19T12:17:52Z</time>
      </trkpt>
      <trkpt lat="43.51417" lon="1.74774">
        <ele>197.69</ele>
        <time>2016-05-19T12:17:53Z</time>
      </trkpt>
      <trkpt lat="43.51418" lon="1.74771">
        <ele>197.21</ele>
        <time>2016-05-19T12:17:55Z</time>
      </trkpt>
      <trkpt lat="43.51421" lon="1.74766">
        <ele>196.25</ele>
        <time>2016-05-19T12:17:59Z</time>
      </trkpt>
      <trkpt lat="43.51429" lon="1.7475">
        <ele>197.21</ele>
        <time>2016-05-19T12:18:09Z</time>
      </trkpt>
      <trkpt lat="43.51433" lon="1.74738">
        <ele>195.77</ele>
        <time>2016-05-19T12:18:14Z</time>
      </trkpt>
      <trkpt lat="43.51432" lon="1.74733">
        <ele>194.8</ele>
        <time>2016-05-19T12:18:16Z</time>
      </trkpt>
      <trkpt lat="43.51429" lon="1.74726">
        <ele>194.8</ele>
        <time>2016-05-19T12:18:19Z</time>
      </trkpt>
      <trkpt lat="43.51412" lon="1.74712">
        <ele>193.36</ele>
        <time>2016-05-19T12:18:29Z</time>
      </trkpt>
      <trkpt lat="43.51398" lon="1.74703">
        <ele>192.88</ele>
        <time>2016-05-19T12:18:39Z</time>
      </trkpt>
      <trkpt lat="43.51392" lon="1.74693">
        <ele>192.88</ele>
        <time>2016-05-19T12:18:47Z</time>
      </trkpt>
      <trkpt lat="43.51391" lon="1.74688">
        <ele>191.92</ele>
        <time>2016-05-19T12:18:50Z</time>
      </trkpt>
      <trkpt lat="43.51389" lon="1.74686">
        <ele>191.92</ele>
        <time>2016-05-19T12:18:52Z</time>
      </trkpt>
      <trkpt lat="43.51373" lon="1.74667">
        <ele>190.96</ele>
        <time>2016-05-19T12:19:05Z</time>
      </trkpt>
      <trkpt lat="43.5136" lon="1.7465">
        <ele>190</ele>
        <time>2016-05-19T12:19:16Z</time>
      </trkpt>
      <trkpt lat="43.51358" lon="1.7465">
        <ele>190</ele>
        <time>2016-05-19T12:19:18Z</time>
      </trkpt>
      <trkpt lat="43.51346" lon="1.74645">
        <ele>189.04</ele>
        <time>2016-05-19T12:19:31Z</time>
      </trkpt>
      <trkpt lat="43.5133" lon="1.74635">
        <ele>188.08</ele>
        <time>2016-05-19T12:19:42Z</time>
      </trkpt>
      <trkpt lat="43.51323" lon="1.74631">
        <ele>187.11</ele>
        <time>2016-05-19T12:19:46Z</time>
      </trkpt>
      <trkpt lat="43.51323" lon="1.74633">
        <ele>187.59</ele>
        <time>2016-05-19T12:19:48Z</time>
      </trkpt>
      <trkpt lat="43.51327" lon="1.74643">
        <ele>188.08</ele>
        <time>2016-05-19T12:19:57Z</time>
      </trkpt>
      <trkpt lat="43.5133" lon="1.74651">
        <ele>189.52</ele>
        <time>2016-05-19T12:20:03Z</time>
      </trkpt>
      <trkpt lat="43.5133" lon="1.74671">
        <ele>190.48</ele>
        <time>2016-05-19T12:20:16Z</time>
      </trkpt>
      <trkpt lat="43.51321" lon="1.74664">
        <ele>190.48</ele>
        <time>2016-05-19T12:20:32Z</time>
      </trkpt>
      <trkpt lat="43.51322" lon="1.74665">
        <ele>190.48</ele>
        <time>2016-05-19T12:20:51Z</time>
      </trkpt>
      <trkpt lat="43.51331" lon="1.74668">
        <ele>190.96</ele>
        <time>2016-05-19T12:21:00Z</time>
      </trkpt>
      <trkpt lat="43.51332" lon="1.74658">
        <ele>190.96</ele>
        <time>2016-05-19T12:21:05Z</time>
      </trkpt>
      <trkpt lat="43.5133" lon="1.74654">
        <ele>189.52</ele>
        <time>2016-05-19T12:21:08Z</time>
      </trkpt>
      <trkpt lat="43.51327" lon="1.74649">
        <ele>189.52</ele>
        <time>2016-05-19T12:21:11Z</time>
      </trkpt>
      <trkpt lat="43.51327" lon="1.74645">
        <ele>188.56</ele>
        <time>2016-05-19T12:21:13Z</time>
      </trkpt>
      <trkpt lat="43.51321" lon="1.7463">
        <ele>187.11</ele>
        <time>2016-05-19T12:21:28Z</time>
      </trkpt>
      <trkpt lat="43.51311" lon="1.74614">
        <ele>185.19</ele>
        <time>2016-05-19T12:21:41Z</time>
      </trkpt>
      <trkpt lat="43.51315" lon="1.74604">
        <ele>184.71</ele>
        <time>2016-05-19T12:21:46Z</time>
      </trkpt>
      <trkpt lat="43.51324" lon="1.74591">
        <ele>184.71</ele>
        <time>2016-05-19T12:21:56Z</time>
      </trkpt>
      <trkpt lat="43.51337" lon="1.74573">
        <ele>185.19</ele>
        <time>2016-05-19T12:22:08Z</time>
      </trkpt>
      <trkpt lat="43.51338" lon="1.74572">
        <ele>185.19</ele>
        <time>2016-05-19T12:22:09Z</time>
      </trkpt>
      <trkpt lat="43.5134" lon="1.74569">
        <ele>185.19</ele>
        <time>2016-05-19T12:22:12Z</time>
      </trkpt>
      <trkpt lat="43.51354" lon="1.74556">
        <ele>184.71</ele>
        <time>2016-05-19T12:22:23Z</time>
      </trkpt>
      <trkpt lat="43.51361" lon="1.74542">
        <ele>184.23</ele>
        <time>2016-05-19T12:22:32Z</time>
      </trkpt>
      <trkpt lat="43.51363" lon="1.74539">
        <ele>184.23</ele>
        <time>2016-05-19T12:22:34Z</time>
      </trkpt>
      <trkpt lat="43.51371" lon="1.74525">
        <ele>183.75</ele>
        <time>2016-05-19T12:22:46Z</time>
      </trkpt>
      <trkpt lat="43.51374" lon="1.74521">
        <ele>183.75</ele>
        <time>2016-05-19T12:22:49Z</time>
      </trkpt>
      <trkpt lat="43.51379" lon="1.74512">
        <ele>183.27</ele>
        <time>2016-05-19T12:22:55Z</time>
      </trkpt>
      <trkpt lat="43.51382" lon="1.74504">
        <ele>183.27</ele>
        <time>2016-05-19T12:23:00Z</time>
      </trkpt>
      <trkpt lat="43.51386" lon="1.745">
        <ele>183.27</ele>
        <time>2016-05-19T12:23:04Z</time>
      </trkpt>
      <trkpt lat="43.51392" lon="1.74495">
        <ele>182.79</ele>
        <time>2016-05-19T12:23:11Z</time>
      </trkpt>
      <trkpt lat="43.51405" lon="1.74473">
        <ele>182.79</ele>
        <time>2016-05-19T12:23:30Z</time>
      </trkpt>
      <trkpt lat="43.51417" lon="1.74463">
        <ele>182.31</ele>
        <time>2016-05-19T12:23:40Z</time>
      </trkpt>
      <trkpt lat="43.51432" lon="1.74437">
        <ele>182.31</ele>
        <time>2016-05-19T12:23:56Z</time>
      </trkpt>
      <trkpt lat="43.51434" lon="1.74436">
        <ele>182.31</ele>
        <time>2016-05-19T12:23:58Z</time>
      </trkpt>
      <trkpt lat="43.51444" lon="1.74423">
        <ele>181.83</ele>
        <time>2016-05-19T12:24:09Z</time>
      </trkpt>
      <trkpt lat="43.51447" lon="1.74421">
        <ele>181.83</ele>
        <time>2016-05-19T12:24:11Z</time>
      </trkpt>
      <trkpt lat="43.51456" lon="1.74414">
        <ele>181.83</ele>
        <time>2016-05-19T12:24:18Z</time>
      </trkpt>
      <trkpt lat="43.51469" lon="1.74392">
        <ele>181.83</ele>
        <time>2016-05-19T12:24:32Z</time>
      </trkpt>
      <trkpt lat="43.5147" lon="1.74388">
        <ele>181.83</ele>
        <time>2016-05-19T12:24:34Z</time>
      </trkpt>
      <trkpt lat="43.51469" lon="1.74373">
        <ele>182.31</ele>
        <time>2016-05-19T12:24:45Z</time>
      </trkpt>
      <trkpt lat="43.5147" lon="1.74366">
        <ele>182.31</ele>
        <time>2016-05-19T12:24:59Z</time>
      </trkpt>
      <trkpt lat="43.51477" lon="1.74353">
        <ele>182.31</ele>
        <time>2016-05-19T12:25:08Z</time>
      </trkpt>
      <trkpt lat="43.5148" lon="1.74348">
        <ele>181.83</ele>
        <time>2016-05-19T12:25:11Z</time>
      </trkpt>
      <trkpt lat="43.51482" lon="1.74344">
        <ele>181.83</ele>
        <time>2016-05-19T12:25:13Z</time>
      </trkpt>
      <trkpt lat="43.51488" lon="1.74326">
        <ele>181.83</ele>
        <time>2016-05-19T12:25:26Z</time>
      </trkpt>
      <trkpt lat="43.51492" lon="1.7431">
        <ele>181.83</ele>
        <time>2016-05-19T12:25:37Z</time>
      </trkpt>
      <trkpt lat="43.51499" lon="1.74288">
        <ele>181.83</ele>
        <time>2016-05-19T12:25:50Z</time>
      </trkpt>
      <trkpt lat="43.51504" lon="1.7428">
        <ele>181.83</ele>
        <time>2016-05-19T12:25:54Z</time>
      </trkpt>
      <trkpt lat="43.51509" lon="1.74261">
        <ele>181.83</ele>
        <time>2016-05-19T12:26:07Z</time>
      </trkpt>
      <trkpt lat="43.51515" lon="1.74239">
        <ele>181.83</ele>
        <time>2016-05-19T12:26:15Z</time>
      </trkpt>
      <trkpt lat="43.51517" lon="1.74218">
        <ele>181.35</ele>
        <time>2016-05-19T12:26:26Z</time>
      </trkpt>
      <trkpt lat="43.51509" lon="1.74196">
        <ele>181.83</ele>
        <time>2016-05-19T12:26:39Z</time>
      </trkpt>
      <trkpt lat="43.51508" lon="1.74186">
        <ele>181.35</ele>
        <time>2016-05-19T12:26:44Z</time>
      </trkpt>
      <trkpt lat="43.51502" lon="1.74173">
        <ele>181.83</ele>
        <time>2016-05-19T12:26:54Z</time>
      </trkpt>
      <trkpt lat="43.51494" lon="1.74153">
        <ele>181.83</ele>
        <time>2016-05-19T12:27:05Z</time>
      </trkpt>
      <trkpt lat="43.51495" lon="1.7415">
        <ele>181.83</ele>
        <time>2016-05-19T12:27:07Z</time>
      </trkpt>
      <trkpt lat="43.51496" lon="1.74142">
        <ele>181.35</ele>
        <time>2016-05-19T12:27:21Z</time>
      </trkpt>
      <trkpt lat="43.51497" lon="1.7412">
        <ele>181.35</ele>
        <time>2016-05-19T12:27:33Z</time>
      </trkpt>
      <trkpt lat="43.51498" lon="1.74094">
        <ele>181.35</ele>
        <time>2016-05-19T12:27:47Z</time>
      </trkpt>
      <trkpt lat="43.51499" lon="1.74072">
        <ele>181.83</ele>
        <time>2016-05-19T12:27:59Z</time>
      </trkpt>
      <trkpt lat="43.515" lon="1.74061">
        <ele>182.31</ele>
        <time>2016-05-19T12:28:04Z</time>
      </trkpt>
      <trkpt lat="43.51499" lon="1.74045">
        <ele>181.83</ele>
        <time>2016-05-19T12:28:16Z</time>
      </trkpt>
      <trkpt lat="43.51499" lon="1.74017">
        <ele>182.31</ele>
        <time>2016-05-19T12:28:29Z</time>
      </trkpt>
      <trkpt lat="43.515" lon="1.73988">
        <ele>181.35</ele>
        <time>2016-05-19T12:28:40Z</time>
      </trkpt>
      <trkpt lat="43.51497" lon="1.73981">
        <ele>181.35</ele>
        <time>2016-05-19T12:28:45Z</time>
      </trkpt>
      <trkpt lat="43.51491" lon="1.7397">
        <ele>181.83</ele>
        <time>2016-05-19T12:28:58Z</time>
      </trkpt>
      <trkpt lat="43.51484" lon="1.73966">
        <ele>181.35</ele>
        <time>2016-05-19T12:29:08Z</time>
      </trkpt>
      <trkpt lat="43.51477" lon="1.73964">
        <ele>182.79</ele>
        <time>2016-05-19T12:29:15Z</time>
      </trkpt>
      <trkpt lat="43.51474" lon="1.73964">
        <ele>182.31</ele>
        <time>2016-05-19T12:29:30Z</time>
      </trkpt>
      <trkpt lat="43.51465" lon="1.73958">
        <ele>183.75</ele>
        <time>2016-05-19T12:30:06Z</time>
      </trkpt>
      <trkpt lat="43.51445" lon="1.73946">
        <ele>184.23</ele>
        <time>2016-05-19T12:30:22Z</time>
      </trkpt>
      <trkpt lat="43.51426" lon="1.73936">
        <ele>184.71</ele>
        <time>2016-05-19T12:30:32Z</time>
      </trkpt>
      <trkpt lat="43.51422" lon="1.73935">
        <ele>184.71</ele>
        <time>2016-05-19T12:30:36Z</time>
      </trkpt>
      <trkpt lat="43.51408" lon="1.73934">
        <ele>185.19</ele>
        <time>2016-05-19T12:30:47Z</time>
      </trkpt>
      <trkpt lat="43.51402" lon="1.73932">
        <ele>185.19</ele>
        <time>2016-05-19T12:30:50Z</time>
      </trkpt>
      <trkpt lat="43.5139" lon="1.73928">
        <ele>185.67</ele>
        <time>2016-05-19T12:31:00Z</time>
      </trkpt>
      <trkpt lat="43.51379" lon="1.73924">
        <ele>185.19</ele>
        <time>2016-05-19T12:31:09Z</time>
      </trkpt>
      <trkpt lat="43.5136" lon="1.73906">
        <ele>185.67</ele>
        <time>2016-05-19T12:31:22Z</time>
      </trkpt>
      <trkpt lat="43.51349" lon="1.73901">
        <ele>186.15</ele>
        <time>2016-05-19T12:31:30Z</time>
      </trkpt>
      <trkpt lat="43.51345" lon="1.73898">
        <ele>186.15</ele>
        <time>2016-05-19T12:31:33Z</time>
      </trkpt>
      <trkpt lat="43.51339" lon="1.73893">
        <ele>186.15</ele>
        <time>2016-05-19T12:31:37Z</time>
      </trkpt>
      <trkpt lat="43.5133" lon="1.73882">
        <ele>185.67</ele>
        <time>2016-05-19T12:31:46Z</time>
      </trkpt>
      <trkpt lat="43.51329" lon="1.73879">
        <ele>185.19</ele>
        <time>2016-05-19T12:31:48Z</time>
      </trkpt>
      <trkpt lat="43.51319" lon="1.73865">
        <ele>184.23</ele>
        <time>2016-05-19T12:31:57Z</time>
      </trkpt>
      <trkpt lat="43.51318" lon="1.73869">
        <ele>184.23</ele>
        <time>2016-05-19T12:32:00Z</time>
      </trkpt>
      <trkpt lat="43.51313" lon="1.73867">
        <ele>183.75</ele>
        <time>2016-05-19T12:32:05Z</time>
      </trkpt>
      <trkpt lat="43.51306" lon="1.73865">
        <ele>182.79</ele>
        <time>2016-05-19T12:32:13Z</time>
      </trkpt>
      <trkpt lat="43.5129" lon="1.73866">
        <ele>182.31</ele>
        <time>2016-05-19T12:32:24Z</time>
      </trkpt>
      <trkpt lat="43.51287" lon="1.7387">
        <ele>182.31</ele>
        <time>2016-05-19T12:32:26Z</time>
      </trkpt>
      <trkpt lat="43.51279" lon="1.73879">
        <ele>182.31</ele>
        <time>2016-05-19T12:32:36Z</time>
      </trkpt>
      <trkpt lat="43.51273" lon="1.73887">
        <ele>182.79</ele>
        <time>2016-05-19T12:32:40Z</time>
      </trkpt>
      <trkpt lat="43.51268" lon="1.73893">
        <ele>182.31</ele>
        <time>2016-05-19T12:32:45Z</time>
      </trkpt>
      <trkpt lat="43.51252" lon="1.73906">
        <ele>182.79</ele>
        <time>2016-05-19T12:32:57Z</time>
      </trkpt>
      <trkpt lat="43.51238" lon="1.7392">
        <ele>182.79</ele>
        <time>2016-05-19T12:33:08Z</time>
      </trkpt>
      <trkpt lat="43.5123" lon="1.73929">
        <ele>182.31</ele>
        <time>2016-05-19T12:33:15Z</time>
      </trkpt>
      <trkpt lat="43.51229" lon="1.73931">
        <ele>182.31</ele>
        <time>2016-05-19T12:33:17Z</time>
      </trkpt>
      <trkpt lat="43.51226" lon="1.73937">
        <ele>182.31</ele>
        <time>2016-05-19T12:33:21Z</time>
      </trkpt>
      <trkpt lat="43.51221" lon="1.73941">
        <ele>182.79</ele>
        <time>2016-05-19T12:33:26Z</time>
      </trkpt>
      <trkpt lat="43.5121" lon="1.7395">
        <ele>182.31</ele>
        <time>2016-05-19T12:33:36Z</time>
      </trkpt>
      <trkpt lat="43.51199" lon="1.73946">
        <ele>182.31</ele>
        <time>2016-05-19T12:33:45Z</time>
      </trkpt>
      <trkpt lat="43.51187" lon="1.73936">
        <ele>184.23</ele>
        <time>2016-05-19T12:33:56Z</time>
      </trkpt>
      <trkpt lat="43.51186" lon="1.73935">
        <ele>183.75</ele>
        <time>2016-05-19T12:33:57Z</time>
      </trkpt>
      <trkpt lat="43.51184" lon="1.73932">
        <ele>183.27</ele>
        <time>2016-05-19T12:34:15Z</time>
      </trkpt>
      <trkpt lat="43.51187" lon="1.73931">
        <ele>182.79</ele>
        <time>2016-05-19T12:34:58Z</time>
      </trkpt>
      <trkpt lat="43.51177" lon="1.73925">
        <ele>182.79</ele>
        <time>2016-05-19T12:35:11Z</time>
      </trkpt>
      <trkpt lat="43.51168" lon="1.73912">
        <ele>182.31</ele>
        <time>2016-05-19T12:35:25Z</time>
      </trkpt>
      <trkpt lat="43.51167" lon="1.73901">
        <ele>182.31</ele>
        <time>2016-05-19T12:35:32Z</time>
      </trkpt>
      <trkpt lat="43.51173" lon="1.73868">
        <ele>182.79</ele>
        <time>2016-05-19T12:35:47Z</time>
      </trkpt>
      <trkpt lat="43.51175" lon="1.73861">
        <ele>183.27</ele>
        <time>2016-05-19T12:35:50Z</time>
      </trkpt>
      <trkpt lat="43.51184" lon="1.73844">
        <ele>182.79</ele>
        <time>2016-05-19T12:36:00Z</time>
      </trkpt>
      <trkpt lat="43.51184" lon="1.73839">
        <ele>182.79</ele>
        <time>2016-05-19T12:36:03Z</time>
      </trkpt>
      <trkpt lat="43.51185" lon="1.73836">
        <ele>182.79</ele>
        <time>2016-05-19T12:36:05Z</time>
      </trkpt>
      <trkpt lat="43.51191" lon="1.73811">
        <ele>182.79</ele>
        <time>2016-05-19T12:36:16Z</time>
      </trkpt>
      <trkpt lat="43.51196" lon="1.73787">
        <ele>181.83</ele>
        <time>2016-05-19T12:36:28Z</time>
      </trkpt>
      <trkpt lat="43.51198" lon="1.7378">
        <ele>182.31</ele>
        <time>2016-05-19T12:36:31Z</time>
      </trkpt>
      <trkpt lat="43.51201" lon="1.73761">
        <ele>181.83</ele>
        <time>2016-05-19T12:36:43Z</time>
      </trkpt>
      <trkpt lat="43.51203" lon="1.73751">
        <ele>181.83</ele>
        <time>2016-05-19T12:36:48Z</time>
      </trkpt>
      <trkpt lat="43.51207" lon="1.73733">
        <ele>182.79</ele>
        <time>2016-05-19T12:36:59Z</time>
      </trkpt>
      <trkpt lat="43.51206" lon="1.7373">
        <ele>183.27</ele>
        <time>2016-05-19T12:37:01Z</time>
      </trkpt>
      <trkpt lat="43.51202" lon="1.73723">
        <ele>183.75</ele>
        <time>2016-05-19T12:37:05Z</time>
      </trkpt>
      <trkpt lat="43.51198" lon="1.73714">
        <ele>183.27</ele>
        <time>2016-05-19T12:37:11Z</time>
      </trkpt>
      <trkpt lat="43.51188" lon="1.73687">
        <ele>186.15</ele>
        <time>2016-05-19T12:37:26Z</time>
      </trkpt>
      <trkpt lat="43.51177" lon="1.73666">
        <ele>186.63</ele>
        <time>2016-05-19T12:37:36Z</time>
      </trkpt>
      <trkpt lat="43.51161" lon="1.73666">
        <ele>186.15</ele>
        <time>2016-05-19T12:37:47Z</time>
      </trkpt>
      <trkpt lat="43.51156" lon="1.73667">
        <ele>186.63</ele>
        <time>2016-05-19T12:37:50Z</time>
      </trkpt>
      <trkpt lat="43.51146" lon="1.73673">
        <ele>185.67</ele>
        <time>2016-05-19T12:37:56Z</time>
      </trkpt>
      <trkpt lat="43.51137" lon="1.73681">
        <ele>186.63</ele>
        <time>2016-05-19T12:38:03Z</time>
      </trkpt>
      <trkpt lat="43.51128" lon="1.73686">
        <ele>185.19</ele>
        <time>2016-05-19T12:38:14Z</time>
      </trkpt>
      <trkpt lat="43.51122" lon="1.7369">
        <ele>184.23</ele>
        <time>2016-05-19T12:38:22Z</time>
      </trkpt>
      <trkpt lat="43.51111" lon="1.73686">
        <ele>183.75</ele>
        <time>2016-05-19T12:38:28Z</time>
      </trkpt>
      <trkpt lat="43.51096" lon="1.73683">
        <ele>182.79</ele>
        <time>2016-05-19T12:38:37Z</time>
      </trkpt>
      <trkpt lat="43.5108" lon="1.73675">
        <ele>183.75</ele>
        <time>2016-05-19T12:38:48Z</time>
      </trkpt>
      <trkpt lat="43.51063" lon="1.73667">
        <ele>182.79</ele>
        <time>2016-05-19T12:38:59Z</time>
      </trkpt>
      <trkpt lat="43.51047" lon="1.73661">
        <ele>183.27</ele>
        <time>2016-05-19T12:39:13Z</time>
      </trkpt>
      <trkpt lat="43.51046" lon="1.73661">
        <ele>182.79</ele>
        <time>2016-05-19T12:39:14Z</time>
      </trkpt>
      <trkpt lat="43.51032" lon="1.7366">
        <ele>182.31</ele>
        <time>2016-05-19T12:39:26Z</time>
      </trkpt>
      <trkpt lat="43.51021" lon="1.73659">
        <ele>182.79</ele>
        <time>2016-05-19T12:39:34Z</time>
      </trkpt>
      <trkpt lat="43.51013" lon="1.73661">
        <ele>182.79</ele>
        <time>2016-05-19T12:39:41Z</time>
      </trkpt>
      <trkpt lat="43.5101" lon="1.73662">
        <ele>181.83</ele>
        <time>2016-05-19T12:39:44Z</time>
      </trkpt>
      <trkpt lat="43.50986" lon="1.73662">
        <ele>181.83</ele>
        <time>2016-05-19T12:39:56Z</time>
      </trkpt>
      <trkpt lat="43.50967" lon="1.73666">
        <ele>181.83</ele>
        <time>2016-05-19T12:40:06Z</time>
      </trkpt>
      <trkpt lat="43.50952" lon="1.73665">
        <ele>182.79</ele>
        <time>2016-05-19T12:40:13Z</time>
      </trkpt>
      <trkpt lat="43.50943" lon="1.73659">
        <ele>182.31</ele>
        <time>2016-05-19T12:40:24Z</time>
      </trkpt>
      <trkpt lat="43.50929" lon="1.73654">
        <ele>181.35</ele>
        <time>2016-05-19T12:40:35Z</time>
      </trkpt>
      <trkpt lat="43.50928" lon="1.73653">
        <ele>181.83</ele>
        <time>2016-05-19T12:40:37Z</time>
      </trkpt>
      <trkpt lat="43.50914" lon="1.73647">
        <ele>182.31</ele>
        <time>2016-05-19T12:40:50Z</time>
      </trkpt>
      <trkpt lat="43.50907" lon="1.73636">
        <ele>181.83</ele>
        <time>2016-05-19T12:41:02Z</time>
      </trkpt>
      <trkpt lat="43.50904" lon="1.73631">
        <ele>181.35</ele>
        <time>2016-05-19T12:41:05Z</time>
      </trkpt>
      <trkpt lat="43.50903" lon="1.73623">
        <ele>180.38</ele>
        <time>2016-05-19T12:41:09Z</time>
      </trkpt>
      <trkpt lat="43.50902" lon="1.73609">
        <ele>179.42</ele>
        <time>2016-05-19T12:41:18Z</time>
      </trkpt>
      <trkpt lat="43.509" lon="1.73594">
        <ele>177.5</ele>
        <time>2016-05-19T12:41:26Z</time>
      </trkpt>
      <trkpt lat="43.50899" lon="1.73588">
        <ele>176.54</ele>
        <time>2016-05-19T12:41:29Z</time>
      </trkpt>
      <trkpt lat="43.50894" lon="1.73579">
        <ele>176.54</ele>
        <time>2016-05-19T12:41:34Z</time>
      </trkpt>
      <trkpt lat="43.50893" lon="1.73573">
        <ele>176.54</ele>
        <time>2016-05-19T12:41:37Z</time>
      </trkpt>
      <trkpt lat="43.50893" lon="1.73568">
        <ele>176.06</ele>
        <time>2016-05-19T12:41:39Z</time>
      </trkpt>
      <trkpt lat="43.5089" lon="1.7356">
        <ele>175.1</ele>
        <time>2016-05-19T12:41:45Z</time>
      </trkpt>
      <trkpt lat="43.50881" lon="1.73554">
        <ele>175.1</ele>
        <time>2016-05-19T12:41:53Z</time>
      </trkpt>
      <trkpt lat="43.50875" lon="1.73548">
        <ele>174.62</ele>
        <time>2016-05-19T12:41:59Z</time>
      </trkpt>
      <trkpt lat="43.50875" lon="1.73536">
        <ele>174.14</ele>
        <time>2016-05-19T12:42:06Z</time>
      </trkpt>
      <trkpt lat="43.50882" lon="1.73536">
        <ele>174.14</ele>
        <time>2016-05-19T12:42:11Z</time>
      </trkpt>
      <trkpt lat="43.50892" lon="1.7354">
        <ele>174.14</ele>
        <time>2016-05-19T12:42:20Z</time>
      </trkpt>
      <trkpt lat="43.50908" lon="1.73548">
        <ele>173.66</ele>
        <time>2016-05-19T12:42:32Z</time>
      </trkpt>
      <trkpt lat="43.50934" lon="1.73542">
        <ele>173.66</ele>
        <time>2016-05-19T12:42:49Z</time>
      </trkpt>
      <trkpt lat="43.50943" lon="1.73532">
        <ele>174.14</ele>
        <time>2016-05-19T12:42:56Z</time>
      </trkpt>
      <trkpt lat="43.50949" lon="1.73534">
        <ele>174.62</ele>
        <time>2016-05-19T12:43:16Z</time>
      </trkpt>
      <trkpt lat="43.50947" lon="1.73535">
        <ele>174.14</ele>
        <time>2016-05-19T12:43:51Z</time>
      </trkpt>
      <trkpt lat="43.50956" lon="1.73515">
        <ele>174.62</ele>
        <time>2016-05-19T12:44:02Z</time>
      </trkpt>
      <trkpt lat="43.5097" lon="1.735">
        <ele>175.1</ele>
        <time>2016-05-19T12:44:14Z</time>
      </trkpt>
      <trkpt lat="43.50975" lon="1.73496">
        <ele>175.1</ele>
        <time>2016-05-19T12:44:20Z</time>
      </trkpt>
      <trkpt lat="43.5099" lon="1.73485">
        <ele>176.54</ele>
        <time>2016-05-19T12:44:32Z</time>
      </trkpt>
      <trkpt lat="43.51005" lon="1.73469">
        <ele>177.98</ele>
        <time>2016-05-19T12:44:44Z</time>
      </trkpt>
      <trkpt lat="43.51011" lon="1.73464">
        <ele>178.94</ele>
        <time>2016-05-19T12:44:49Z</time>
      </trkpt>
      <trkpt lat="43.51015" lon="1.7346">
        <ele>179.42</ele>
        <time>2016-05-19T12:44:54Z</time>
      </trkpt>
      <trkpt lat="43.51022" lon="1.73449">
        <ele>180.87</ele>
        <time>2016-05-19T12:45:04Z</time>
      </trkpt>
      <trkpt lat="43.51039" lon="1.73439">
        <ele>182.31</ele>
        <time>2016-05-19T12:45:19Z</time>
      </trkpt>
      <trkpt lat="43.5105" lon="1.73436">
        <ele>182.31</ele>
        <time>2016-05-19T12:45:31Z</time>
      </trkpt>
      <trkpt lat="43.51068" lon="1.73431">
        <ele>182.31</ele>
        <time>2016-05-19T12:45:43Z</time>
      </trkpt>
      <trkpt lat="43.51077" lon="1.7343">
        <ele>181.83</ele>
        <time>2016-05-19T12:45:48Z</time>
      </trkpt>
      <trkpt lat="43.51093" lon="1.73424">
        <ele>182.31</ele>
        <time>2016-05-19T12:45:59Z</time>
      </trkpt>
      <trkpt lat="43.51098" lon="1.73423">
        <ele>182.31</ele>
        <time>2016-05-19T12:46:04Z</time>
      </trkpt>
      <trkpt lat="43.51105" lon="1.73419">
        <ele>181.83</ele>
        <time>2016-05-19T12:46:09Z</time>
      </trkpt>
      <trkpt lat="43.51117" lon="1.73419">
        <ele>181.83</ele>
        <time>2016-05-19T12:46:16Z</time>
      </trkpt>
      <trkpt lat="43.51136" lon="1.73422">
        <ele>182.31</ele>
        <time>2016-05-19T12:46:28Z</time>
      </trkpt>
      <trkpt lat="43.51146" lon="1.73425">
        <ele>181.83</ele>
        <time>2016-05-19T12:46:37Z</time>
      </trkpt>
      <trkpt lat="43.51155" lon="1.73426">
        <ele>182.31</ele>
        <time>2016-05-19T12:46:45Z</time>
      </trkpt>
      <trkpt lat="43.51157" lon="1.73426">
        <ele>182.31</ele>
        <time>2016-05-19T12:46:46Z</time>
      </trkpt>
      <trkpt lat="43.51162" lon="1.7343">
        <ele>181.83</ele>
        <time>2016-05-19T12:46:49Z</time>
      </trkpt>
      <trkpt lat="43.51173" lon="1.73436">
        <ele>181.83</ele>
        <time>2016-05-19T12:46:58Z</time>
      </trkpt>
      <trkpt lat="43.51196" lon="1.73445">
        <ele>181.83</ele>
        <time>2016-05-19T12:47:12Z</time>
      </trkpt>
      <trkpt lat="43.51213" lon="1.73452">
        <ele>182.31</ele>
        <time>2016-05-19T12:47:24Z</time>
      </trkpt>
      <trkpt lat="43.51229" lon="1.73461">
        <ele>181.83</ele>
        <time>2016-05-19T12:47:36Z</time>
      </trkpt>
      <trkpt lat="43.5123" lon="1.7346">
        <ele>182.31</ele>
        <time>2016-05-19T12:47:38Z</time>
      </trkpt>
      <trkpt lat="43.51253" lon="1.73468">
        <ele>181.83</ele>
        <time>2016-05-19T12:47:54Z</time>
      </trkpt>
      <trkpt lat="43.51275" lon="1.73475">
        <ele>181.35</ele>
        <time>2016-05-19T12:48:05Z</time>
      </trkpt>
      <trkpt lat="43.51289" lon="1.7348">
        <ele>181.83</ele>
        <time>2016-05-19T12:48:13Z</time>
      </trkpt>
      <trkpt lat="43.51291" lon="1.73487">
        <ele>182.31</ele>
        <time>2016-05-19T12:48:18Z</time>
      </trkpt>
      <trkpt lat="43.51295" lon="1.73488">
        <ele>182.31</ele>
        <time>2016-05-19T12:48:21Z</time>
      </trkpt>
      <trkpt lat="43.51301" lon="1.73486">
        <ele>181.83</ele>
        <time>2016-05-19T12:48:27Z</time>
      </trkpt>
      <trkpt lat="43.51307" lon="1.73489">
        <ele>181.83</ele>
        <time>2016-05-19T12:48:38Z</time>
      </trkpt>
      <trkpt lat="43.51333" lon="1.73483">
        <ele>181.83</ele>
        <time>2016-05-19T12:48:58Z</time>
      </trkpt>
      <trkpt lat="43.51355" lon="1.73473">
        <ele>182.31</ele>
        <time>2016-05-19T12:49:11Z</time>
      </trkpt>
      <trkpt lat="43.51365" lon="1.73461">
        <ele>181.83</ele>
        <time>2016-05-19T12:49:19Z</time>
      </trkpt>
      <trkpt lat="43.51387" lon="1.73444">
        <ele>181.83</ele>
        <time>2016-05-19T12:49:34Z</time>
      </trkpt>
      <trkpt lat="43.51389" lon="1.73444">
        <ele>181.83</ele>
        <time>2016-05-19T12:49:35Z</time>
      </trkpt>
      <trkpt lat="43.51409" lon="1.73432">
        <ele>181.83</ele>
        <time>2016-05-19T12:49:49Z</time>
      </trkpt>
      <trkpt lat="43.51424" lon="1.73441">
        <ele>182.31</ele>
        <time>2016-05-19T12:50:01Z</time>
      </trkpt>
      <trkpt lat="43.51444" lon="1.73456">
        <ele>181.83</ele>
        <time>2016-05-19T12:50:15Z</time>
      </trkpt>
      <trkpt lat="43.51465" lon="1.73473">
        <ele>183.27</ele>
        <time>2016-05-19T12:50:31Z</time>
      </trkpt>
      <trkpt lat="43.5147" lon="1.73484">
        <ele>184.23</ele>
        <time>2016-05-19T12:50:41Z</time>
      </trkpt>
      <trkpt lat="43.51485" lon="1.73499">
        <ele>185.19</ele>
        <time>2016-05-19T12:50:52Z</time>
      </trkpt>
      <trkpt lat="43.51494" lon="1.73509">
        <ele>186.63</ele>
        <time>2016-05-19T12:51:04Z</time>
      </trkpt>
      <trkpt lat="43.51502" lon="1.73514">
        <ele>186.63</ele>
        <time>2016-05-19T12:51:15Z</time>
      </trkpt>
      <trkpt lat="43.51513" lon="1.73525">
        <ele>187.59</ele>
        <time>2016-05-19T12:51:24Z</time>
      </trkpt>
      <trkpt lat="43.51521" lon="1.73533">
        <ele>188.08</ele>
        <time>2016-05-19T12:51:32Z</time>
      </trkpt>
      <trkpt lat="43.51528" lon="1.73538">
        <ele>189.04</ele>
        <time>2016-05-19T12:51:36Z</time>
      </trkpt>
      <trkpt lat="43.51534" lon="1.73543">
        <ele>189.52</ele>
        <time>2016-05-19T12:51:41Z</time>
      </trkpt>
      <trkpt lat="43.51549" lon="1.73558">
        <ele>190.96</ele>
        <time>2016-05-19T12:51:54Z</time>
      </trkpt>
      <trkpt lat="43.51557" lon="1.73569">
        <ele>190.96</ele>
        <time>2016-05-19T12:52:02Z</time>
      </trkpt>
      <trkpt lat="43.5157" lon="1.73577">
        <ele>192.4</ele>
        <time>2016-05-19T12:52:13Z</time>
      </trkpt>
      <trkpt lat="43.51579" lon="1.73588">
        <ele>192.4</ele>
        <time>2016-05-19T12:52:25Z</time>
      </trkpt>
      <trkpt lat="43.51584" lon="1.73587">
        <ele>194.32</ele>
        <time>2016-05-19T12:52:32Z</time>
      </trkpt>
      <trkpt lat="43.51588" lon="1.73566">
        <ele>192.88</ele>
        <time>2016-05-19T12:52:46Z</time>
      </trkpt>
      <trkpt lat="43.51589" lon="1.73562">
        <ele>193.36</ele>
        <time>2016-05-19T12:52:48Z</time>
      </trkpt>
      <trkpt lat="43.51592" lon="1.73551">
        <ele>192.4</ele>
        <time>2016-05-19T12:52:54Z</time>
      </trkpt>
      <trkpt lat="43.51594" lon="1.73547">
        <ele>192.88</ele>
        <time>2016-05-19T12:52:56Z</time>
      </trkpt>
      <trkpt lat="43.51604" lon="1.73529">
        <ele>192.4</ele>
        <time>2016-05-19T12:53:08Z</time>
      </trkpt>
      <trkpt lat="43.5162" lon="1.73497">
        <ele>192.88</ele>
        <time>2016-05-19T12:53:23Z</time>
      </trkpt>
      <trkpt lat="43.51624" lon="1.73492">
        <ele>192.4</ele>
        <time>2016-05-19T12:53:28Z</time>
      </trkpt>
      <trkpt lat="43.51628" lon="1.73488">
        <ele>192.88</ele>
        <time>2016-05-19T12:53:33Z</time>
      </trkpt>
      <trkpt lat="43.51629" lon="1.73473">
        <ele>192.88</ele>
        <time>2016-05-19T12:53:40Z</time>
      </trkpt>
      <trkpt lat="43.51629" lon="1.73469">
        <ele>192.88</ele>
        <time>2016-05-19T12:53:42Z</time>
      </trkpt>
      <trkpt lat="43.51632" lon="1.73463">
        <ele>192.88</ele>
        <time>2016-05-19T12:53:46Z</time>
      </trkpt>
      <trkpt lat="43.51642" lon="1.7345">
        <ele>192.88</ele>
        <time>2016-05-19T12:53:53Z</time>
      </trkpt>
      <trkpt lat="43.51653" lon="1.73422">
        <ele>192.88</ele>
        <time>2016-05-19T12:54:08Z</time>
      </trkpt>
      <trkpt lat="43.51666" lon="1.73414">
        <ele>192.4</ele>
        <time>2016-05-19T12:54:18Z</time>
      </trkpt>
      <trkpt lat="43.51669" lon="1.73415">
        <ele>192.88</ele>
        <time>2016-05-19T12:54:21Z</time>
      </trkpt>
      <trkpt lat="43.51672" lon="1.73416">
        <ele>192.88</ele>
        <time>2016-05-19T12:54:23Z</time>
      </trkpt>
      <trkpt lat="43.51683" lon="1.73429">
        <ele>193.36</ele>
        <time>2016-05-19T12:54:36Z</time>
      </trkpt>
      <trkpt lat="43.51687" lon="1.73432">
        <ele>192.88</ele>
        <time>2016-05-19T12:54:38Z</time>
      </trkpt>
      <trkpt lat="43.51691" lon="1.73436">
        <ele>192.88</ele>
        <time>2016-05-19T12:54:41Z</time>
      </trkpt>
      <trkpt lat="43.51698" lon="1.73445">
        <ele>193.84</ele>
        <time>2016-05-19T12:54:47Z</time>
      </trkpt>
      <trkpt lat="43.51708" lon="1.73455">
        <ele>193.84</ele>
        <time>2016-05-19T12:54:59Z</time>
      </trkpt>
      <trkpt lat="43.51713" lon="1.73461">
        <ele>194.32</ele>
        <time>2016-05-19T12:55:04Z</time>
      </trkpt>
      <trkpt lat="43.5172" lon="1.73472">
        <ele>194.32</ele>
        <time>2016-05-19T12:55:10Z</time>
      </trkpt>
      <trkpt lat="43.51727" lon="1.7348">
        <ele>194.8</ele>
        <time>2016-05-19T12:55:14Z</time>
      </trkpt>
      <trkpt lat="43.51736" lon="1.7349">
        <ele>195.28</ele>
        <time>2016-05-19T12:55:20Z</time>
      </trkpt>
      <trkpt lat="43.51747" lon="1.73501">
        <ele>195.77</ele>
        <time>2016-05-19T12:55:28Z</time>
      </trkpt>
      <trkpt lat="43.51755" lon="1.73509">
        <ele>195.77</ele>
        <time>2016-05-19T12:55:35Z</time>
      </trkpt>
      <trkpt lat="43.51758" lon="1.73511">
        <ele>196.25</ele>
        <time>2016-05-19T12:55:38Z</time>
      </trkpt>
      <trkpt lat="43.51762" lon="1.73515">
        <ele>196.25</ele>
        <time>2016-05-19T12:55:41Z</time>
      </trkpt>
      <trkpt lat="43.51769" lon="1.73526">
        <ele>196.73</ele>
        <time>2016-05-19T12:55:54Z</time>
      </trkpt>
      <trkpt lat="43.51779" lon="1.73531">
        <ele>196.73</ele>
        <time>2016-05-19T12:55:59Z</time>
      </trkpt>
      <trkpt lat="43.51796" lon="1.73552">
        <ele>197.21</ele>
        <time>2016-05-19T12:56:12Z</time>
      </trkpt>
      <trkpt lat="43.51807" lon="1.73568">
        <ele>197.21</ele>
        <time>2016-05-19T12:56:23Z</time>
      </trkpt>
      <trkpt lat="43.51815" lon="1.73576">
        <ele>198.17</ele>
        <time>2016-05-19T12:56:33Z</time>
      </trkpt>
      <trkpt lat="43.51816" lon="1.73576">
        <ele>198.17</ele>
        <time>2016-05-19T12:56:34Z</time>
      </trkpt>
      <trkpt lat="43.51821" lon="1.73582">
        <ele>199.61</ele>
        <time>2016-05-19T12:56:40Z</time>
      </trkpt>
      <trkpt lat="43.51839" lon="1.73603">
        <ele>199.61</ele>
        <time>2016-05-19T12:56:53Z</time>
      </trkpt>
      <trkpt lat="43.51858" lon="1.73619">
        <ele>199.61</ele>
        <time>2016-05-19T12:57:07Z</time>
      </trkpt>
      <trkpt lat="43.51859" lon="1.73622">
        <ele>200.09</ele>
        <time>2016-05-19T12:57:10Z</time>
      </trkpt>
      <trkpt lat="43.51869" lon="1.73638">
        <ele>199.61</ele>
        <time>2016-05-19T12:57:21Z</time>
      </trkpt>
      <trkpt lat="43.51882" lon="1.73653">
        <ele>200.09</ele>
        <time>2016-05-19T12:57:32Z</time>
      </trkpt>
      <trkpt lat="43.51892" lon="1.73662">
        <ele>200.09</ele>
        <time>2016-05-19T12:57:41Z</time>
      </trkpt>
      <trkpt lat="43.51907" lon="1.73674">
        <ele>200.57</ele>
        <time>2016-05-19T12:57:53Z</time>
      </trkpt>
      <trkpt lat="43.51919" lon="1.73683">
        <ele>200.57</ele>
        <time>2016-05-19T12:58:03Z</time>
      </trkpt>
      <trkpt lat="43.51923" lon="1.7369">
        <ele>201.05</ele>
        <time>2016-05-19T12:58:07Z</time>
      </trkpt>
      <trkpt lat="43.51939" lon="1.73713">
        <ele>201.05</ele>
        <time>2016-05-19T12:58:19Z</time>
      </trkpt>
      <trkpt lat="43.51945" lon="1.73718">
        <ele>201.53</ele>
        <time>2016-05-19T12:58:23Z</time>
      </trkpt>
      <trkpt lat="43.51957" lon="1.7373">
        <ele>201.53</ele>
        <time>2016-05-19T12:58:31Z</time>
      </trkpt>
      <trkpt lat="43.51962" lon="1.73739">
        <ele>202.01</ele>
        <time>2016-05-19T12:58:37Z</time>
      </trkpt>
      <trkpt lat="43.51968" lon="1.73747">
        <ele>202.49</ele>
        <time>2016-05-19T12:58:47Z</time>
      </trkpt>
      <trkpt lat="43.51979" lon="1.73756">
        <ele>203.46</ele>
        <time>2016-05-19T12:58:57Z</time>
      </trkpt>
      <trkpt lat="43.51987" lon="1.73764">
        <ele>202.98</ele>
        <time>2016-05-19T12:59:03Z</time>
      </trkpt>
      <trkpt lat="43.52008" lon="1.73787">
        <ele>202.98</ele>
        <time>2016-05-19T12:59:17Z</time>
      </trkpt>
      <trkpt lat="43.52015" lon="1.73797">
        <ele>203.94</ele>
        <time>2016-05-19T12:59:26Z</time>
      </trkpt>
      <trkpt lat="43.52021" lon="1.73802">
        <ele>203.46</ele>
        <time>2016-05-19T12:59:31Z</time>
      </trkpt>
      <trkpt lat="43.52028" lon="1.73806">
        <ele>204.42</ele>
        <time>2016-05-19T12:59:37Z</time>
      </trkpt>
      <trkpt lat="43.52034" lon="1.73817">
        <ele>203.94</ele>
        <time>2016-05-19T12:59:44Z</time>
      </trkpt>
      <trkpt lat="43.52038" lon="1.73819">
        <ele>204.9</ele>
        <time>2016-05-19T12:59:47Z</time>
      </trkpt>
      <trkpt lat="43.5205" lon="1.73834">
        <ele>204.42</ele>
        <time>2016-05-19T12:59:58Z</time>
      </trkpt>
      <trkpt lat="43.52052" lon="1.7384">
        <ele>206.34</ele>
        <time>2016-05-19T13:00:03Z</time>
      </trkpt>
      <trkpt lat="43.52055" lon="1.73842">
        <ele>205.38</ele>
        <time>2016-05-19T13:00:06Z</time>
      </trkpt>
      <trkpt lat="43.52058" lon="1.73844">
        <ele>207.3</ele>
        <time>2016-05-19T13:00:08Z</time>
      </trkpt>
      <trkpt lat="43.52065" lon="1.73851">
        <ele>206.34</ele>
        <time>2016-05-19T13:00:14Z</time>
      </trkpt>
      <trkpt lat="43.52078" lon="1.73866">
        <ele>206.34</ele>
        <time>2016-05-19T13:00:23Z</time>
      </trkpt>
      <trkpt lat="43.52089" lon="1.7388">
        <ele>205.86</ele>
        <time>2016-05-19T13:00:33Z</time>
      </trkpt>
      <trkpt lat="43.52093" lon="1.73882">
        <ele>206.34</ele>
        <time>2016-05-19T13:00:36Z</time>
      </trkpt>
      <trkpt lat="43.52106" lon="1.73899">
        <ele>204.9</ele>
        <time>2016-05-19T13:00:47Z</time>
      </trkpt>
      <trkpt lat="43.52121" lon="1.73911">
        <ele>205.38</ele>
        <time>2016-05-19T13:00:58Z</time>
      </trkpt>
      <trkpt lat="43.52134" lon="1.73926">
        <ele>206.34</ele>
        <time>2016-05-19T13:01:11Z</time>
      </trkpt>
      <trkpt lat="43.52144" lon="1.73939">
        <ele>205.86</ele>
        <time>2016-05-19T13:01:21Z</time>
      </trkpt>
      <trkpt lat="43.5215" lon="1.73943">
        <ele>206.34</ele>
        <time>2016-05-19T13:01:25Z</time>
      </trkpt>
      <trkpt lat="43.52157" lon="1.73949">
        <ele>206.34</ele>
        <time>2016-05-19T13:01:34Z</time>
      </trkpt>
      <trkpt lat="43.52172" lon="1.73959">
        <ele>206.82</ele>
        <time>2016-05-19T13:01:45Z</time>
      </trkpt>
      <trkpt lat="43.52187" lon="1.73966">
        <ele>208.26</ele>
        <time>2016-05-19T13:01:55Z</time>
      </trkpt>
      <trkpt lat="43.52188" lon="1.73966">
        <ele>208.26</ele>
        <time>2016-05-19T13:01:56Z</time>
      </trkpt>
      <trkpt lat="43.52203" lon="1.73967">
        <ele>209.22</ele>
        <time>2016-05-19T13:02:07Z</time>
      </trkpt>
      <trkpt lat="43.5221" lon="1.73968">
        <ele>209.7</ele>
        <time>2016-05-19T13:02:11Z</time>
      </trkpt>
      <trkpt lat="43.52234" lon="1.73974">
        <ele>209.7</ele>
        <time>2016-05-19T13:02:23Z</time>
      </trkpt>
      <trkpt lat="43.52236" lon="1.73974">
        <ele>209.7</ele>
        <time>2016-05-19T13:02:25Z</time>
      </trkpt>
      <trkpt lat="43.52237" lon="1.73974">
        <ele>208.74</ele>
        <time>2016-05-19T13:02:27Z</time>
      </trkpt>
      <trkpt lat="43.52247" lon="1.73972">
        <ele>209.22</ele>
        <time>2016-05-19T13:02:37Z</time>
      </trkpt>
      <trkpt lat="43.52256" lon="1.73977">
        <ele>208.74</ele>
        <time>2016-05-19T13:02:44Z</time>
      </trkpt>
      <trkpt lat="43.52274" lon="1.73981">
        <ele>208.74</ele>
        <time>2016-05-19T13:02:55Z</time>
      </trkpt>
      <trkpt lat="43.52285" lon="1.73982">
        <ele>209.22</ele>
        <time>2016-05-19T13:03:05Z</time>
      </trkpt>
      <trkpt lat="43.52288" lon="1.73983">
        <ele>209.22</ele>
        <time>2016-05-19T13:03:07Z</time>
      </trkpt>
      <trkpt lat="43.52301" lon="1.73985">
        <ele>209.22</ele>
        <time>2016-05-19T13:03:17Z</time>
      </trkpt>
      <trkpt lat="43.52307" lon="1.73987">
        <ele>209.7</ele>
        <time>2016-05-19T13:03:21Z</time>
      </trkpt>
      <trkpt lat="43.52328" lon="1.73993">
        <ele>209.7</ele>
        <time>2016-05-19T13:03:34Z</time>
      </trkpt>
      <trkpt lat="43.52334" lon="1.73996">
        <ele>210.19</ele>
        <time>2016-05-19T13:03:38Z</time>
      </trkpt>
      <trkpt lat="43.52337" lon="1.74">
        <ele>210.19</ele>
        <time>2016-05-19T13:03:41Z</time>
      </trkpt>
      <trkpt lat="43.52344" lon="1.74002">
        <ele>209.7</ele>
        <time>2016-05-19T13:03:44Z</time>
      </trkpt>
      <trkpt lat="43.52355" lon="1.74017">
        <ele>210.67</ele>
        <time>2016-05-19T13:03:54Z</time>
      </trkpt>
      <trkpt lat="43.52368" lon="1.74035">
        <ele>210.67</ele>
        <time>2016-05-19T13:04:07Z</time>
      </trkpt>
      <trkpt lat="43.5237" lon="1.74045">
        <ele>210.67</ele>
        <time>2016-05-19T13:04:12Z</time>
      </trkpt>
      <trkpt lat="43.52371" lon="1.74061">
        <ele>210.67</ele>
        <time>2016-05-19T13:04:18Z</time>
      </trkpt>
      <trkpt lat="43.52371" lon="1.74068">
        <ele>210.67</ele>
        <time>2016-05-19T13:04:22Z</time>
      </trkpt>
      <trkpt lat="43.52368" lon="1.74081">
        <ele>210.67</ele>
        <time>2016-05-19T13:04:30Z</time>
      </trkpt>
      <trkpt lat="43.52371" lon="1.74092">
        <ele>210.67</ele>
        <time>2016-05-19T13:04:35Z</time>
      </trkpt>
      <trkpt lat="43.52372" lon="1.74103">
        <ele>211.15</ele>
        <time>2016-05-19T13:04:40Z</time>
      </trkpt>
      <trkpt lat="43.52373" lon="1.74112">
        <ele>211.15</ele>
        <time>2016-05-19T13:04:45Z</time>
      </trkpt>
      <trkpt lat="43.52373" lon="1.74119">
        <ele>211.15</ele>
        <time>2016-05-19T13:04:48Z</time>
      </trkpt>
      <trkpt lat="43.52374" lon="1.74132">
        <ele>212.11</ele>
        <time>2016-05-19T13:04:54Z</time>
      </trkpt>
      <trkpt lat="43.52373" lon="1.74137">
        <ele>211.63</ele>
        <time>2016-05-19T13:04:58Z</time>
      </trkpt>
      <trkpt lat="43.52372" lon="1.74148">
        <ele>212.11</ele>
        <time>2016-05-19T13:05:03Z</time>
      </trkpt>
      <trkpt lat="43.52371" lon="1.7416">
        <ele>212.11</ele>
        <time>2016-05-19T13:05:09Z</time>
      </trkpt>
      <trkpt lat="43.5237" lon="1.74167">
        <ele>212.59</ele>
        <time>2016-05-19T13:05:13Z</time>
      </trkpt>
      <trkpt lat="43.5237" lon="1.74182">
        <ele>212.59</ele>
        <time>2016-05-19T13:05:23Z</time>
      </trkpt>
      <trkpt lat="43.5237" lon="1.74209">
        <ele>212.59</ele>
        <time>2016-05-19T13:05:34Z</time>
      </trkpt>
      <trkpt lat="43.5237" lon="1.74232">
        <ele>212.59</ele>
        <time>2016-05-19T13:05:45Z</time>
      </trkpt>
      <trkpt lat="43.5237" lon="1.74235">
        <ele>213.07</ele>
        <time>2016-05-19T13:05:46Z</time>
      </trkpt>
      <trkpt lat="43.52369" lon="1.7425">
        <ele>213.07</ele>
        <time>2016-05-19T13:05:53Z</time>
      </trkpt>
      <trkpt lat="43.52367" lon="1.74265">
        <ele>213.07</ele>
        <time>2016-05-19T13:06:02Z</time>
      </trkpt>
      <trkpt lat="43.52372" lon="1.74286">
        <ele>213.07</ele>
        <time>2016-05-19T13:06:11Z</time>
      </trkpt>
      <trkpt lat="43.5237" lon="1.74295">
        <ele>213.07</ele>
        <time>2016-05-19T13:06:16Z</time>
      </trkpt>
      <trkpt lat="43.52369" lon="1.74302">
        <ele>213.55</ele>
        <time>2016-05-19T13:06:20Z</time>
      </trkpt>
      <trkpt lat="43.52369" lon="1.74314">
        <ele>213.07</ele>
        <time>2016-05-19T13:06:26Z</time>
      </trkpt>
      <trkpt lat="43.52373" lon="1.7432">
        <ele>213.55</ele>
        <time>2016-05-19T13:06:30Z</time>
      </trkpt>
      <trkpt lat="43.52371" lon="1.74351">
        <ele>213.55</ele>
        <time>2016-05-19T13:06:42Z</time>
      </trkpt>
      <trkpt lat="43.52374" lon="1.74372">
        <ele>214.03</ele>
        <time>2016-05-19T13:06:54Z</time>
      </trkpt>
      <trkpt lat="43.52369" lon="1.74402">
        <ele>213.55</ele>
        <time>2016-05-19T13:07:06Z</time>
      </trkpt>
      <trkpt lat="43.52368" lon="1.7441">
        <ele>214.03</ele>
        <time>2016-05-19T13:07:10Z</time>
      </trkpt>
      <trkpt lat="43.52371" lon="1.7442">
        <ele>214.03</ele>
        <time>2016-05-19T13:07:14Z</time>
      </trkpt>
      <trkpt lat="43.52371" lon="1.74426">
        <ele>214.51</ele>
        <time>2016-05-19T13:07:18Z</time>
      </trkpt>
      <trkpt lat="43.52373" lon="1.74434">
        <ele>214.51</ele>
        <time>2016-05-19T13:07:21Z</time>
      </trkpt>
      <trkpt lat="43.52366" lon="1.74456">
        <ele>214.51</ele>
        <time>2016-05-19T13:07:32Z</time>
      </trkpt>
      <trkpt lat="43.52365" lon="1.74459">
        <ele>214.03</ele>
        <time>2016-05-19T13:07:33Z</time>
      </trkpt>
      <trkpt lat="43.52367" lon="1.74469">
        <ele>214.51</ele>
        <time>2016-05-19T13:07:37Z</time>
      </trkpt>
      <trkpt lat="43.52367" lon="1.74494">
        <ele>214.51</ele>
        <time>2016-05-19T13:07:49Z</time>
      </trkpt>
      <trkpt lat="43.52367" lon="1.74496">
        <ele>214.51</ele>
        <time>2016-05-19T13:07:50Z</time>
      </trkpt>
      <trkpt lat="43.52366" lon="1.74509">
        <ele>214.51</ele>
        <time>2016-05-19T13:07:57Z</time>
      </trkpt>
      <trkpt lat="43.52365" lon="1.74519">
        <ele>214.03</ele>
        <time>2016-05-19T13:08:02Z</time>
      </trkpt>
      <trkpt lat="43.52363" lon="1.74525">
        <ele>214.51</ele>
        <time>2016-05-19T13:08:06Z</time>
      </trkpt>
      <trkpt lat="43.52364" lon="1.74533">
        <ele>214.51</ele>
        <time>2016-05-19T13:08:10Z</time>
      </trkpt>
      <trkpt lat="43.52362" lon="1.74546">
        <ele>214.51</ele>
        <time>2016-05-19T13:08:15Z</time>
      </trkpt>
      <trkpt lat="43.52362" lon="1.74551">
        <ele>214.51</ele>
        <time>2016-05-19T13:08:17Z</time>
      </trkpt>
      <trkpt lat="43.52362" lon="1.74559">
        <ele>214.03</ele>
        <time>2016-05-19T13:08:22Z</time>
      </trkpt>
      <trkpt lat="43.52362" lon="1.74574">
        <ele>214.51</ele>
        <time>2016-05-19T13:08:32Z</time>
      </trkpt>
      <trkpt lat="43.5236" lon="1.74595">
        <ele>214.51</ele>
        <time>2016-05-19T13:08:43Z</time>
      </trkpt>
      <trkpt lat="43.52363" lon="1.74608">
        <ele>214.51</ele>
        <time>2016-05-19T13:08:48Z</time>
      </trkpt>
      <trkpt lat="43.52367" lon="1.7462">
        <ele>214.51</ele>
        <time>2016-05-19T13:08:54Z</time>
      </trkpt>
      <trkpt lat="43.52378" lon="1.74641">
        <ele>215.95</ele>
        <time>2016-05-19T13:09:06Z</time>
      </trkpt>
      <trkpt lat="43.52386" lon="1.7465">
        <ele>215.47</ele>
        <time>2016-05-19T13:09:12Z</time>
      </trkpt>
      <trkpt lat="43.52399" lon="1.74665">
        <ele>215.95</ele>
        <time>2016-05-19T13:09:25Z</time>
      </trkpt>
      <trkpt lat="43.52412" lon="1.74671">
        <ele>217.4</ele>
        <time>2016-05-19T13:09:36Z</time>
      </trkpt>
      <trkpt lat="43.52417" lon="1.74673">
        <ele>217.4</ele>
        <time>2016-05-19T13:09:39Z</time>
      </trkpt>
      <trkpt lat="43.52434" lon="1.74677">
        <ele>217.88</ele>
        <time>2016-05-19T13:09:52Z</time>
      </trkpt>
      <trkpt lat="43.52453" lon="1.74682">
        <ele>218.36</ele>
        <time>2016-05-19T13:10:05Z</time>
      </trkpt>
      <trkpt lat="43.52473" lon="1.74687">
        <ele>218.84</ele>
        <time>2016-05-19T13:10:15Z</time>
      </trkpt>
      <trkpt lat="43.52475" lon="1.74687">
        <ele>218.84</ele>
        <time>2016-05-19T13:10:16Z</time>
      </trkpt>
      <trkpt lat="43.52482" lon="1.74685">
        <ele>219.32</ele>
        <time>2016-05-19T13:10:25Z</time>
      </trkpt>
      <trkpt lat="43.52487" lon="1.74688">
        <ele>219.32</ele>
        <time>2016-05-19T13:10:28Z</time>
      </trkpt>
      <trkpt lat="43.5249" lon="1.74691">
        <ele>220.28</ele>
        <time>2016-05-19T13:10:31Z</time>
      </trkpt>
      <trkpt lat="43.52503" lon="1.74692">
        <ele>220.76</ele>
        <time>2016-05-19T13:10:37Z</time>
      </trkpt>
      <trkpt lat="43.52521" lon="1.747">
        <ele>221.24</ele>
        <time>2016-05-19T13:10:45Z</time>
      </trkpt>
      <trkpt lat="43.52533" lon="1.74705">
        <ele>221.72</ele>
        <time>2016-05-19T13:10:52Z</time>
      </trkpt>
      <trkpt lat="43.52545" lon="1.74706">
        <ele>222.2</ele>
        <time>2016-05-19T13:11:01Z</time>
      </trkpt>
      <trkpt lat="43.52547" lon="1.74704">
        <ele>222.2</ele>
        <time>2016-05-19T13:11:03Z</time>
      </trkpt>
      <trkpt lat="43.52547" lon="1.747">
        <ele>221.72</ele>
        <time>2016-05-19T13:11:05Z</time>
      </trkpt>
      <trkpt lat="43.52548" lon="1.74693">
        <ele>222.68</ele>
        <time>2016-05-19T13:11:09Z</time>
      </trkpt>
      <trkpt lat="43.5255" lon="1.74684">
        <ele>222.68</ele>
        <time>2016-05-19T13:11:13Z</time>
      </trkpt>
      <trkpt lat="43.52549" lon="1.74675">
        <ele>221.24</ele>
        <time>2016-05-19T13:11:17Z</time>
      </trkpt>
      <trkpt lat="43.52551" lon="1.74664">
        <ele>221.72</ele>
        <time>2016-05-19T13:11:21Z</time>
      </trkpt>
      <trkpt lat="43.52548" lon="1.74649">
        <ele>220.28</ele>
        <time>2016-05-19T13:11:30Z</time>
      </trkpt>
      <trkpt lat="43.52543" lon="1.74645">
        <ele>220.28</ele>
        <time>2016-05-19T13:11:35Z</time>
      </trkpt>
      <trkpt lat="43.5253" lon="1.74638">
        <ele>218.84</ele>
        <time>2016-05-19T13:11:46Z</time>
      </trkpt>
      <trkpt lat="43.52527" lon="1.74635">
        <ele>219.8</ele>
        <time>2016-05-19T13:12:11Z</time>
      </trkpt>
      <trkpt lat="43.52529" lon="1.74637">
        <ele>220.28</ele>
        <time>2016-05-19T13:13:04Z</time>
      </trkpt>
      <trkpt lat="43.52526" lon="1.74637">
        <ele>220.28</ele>
        <time>2016-05-19T13:15:16Z</time>
      </trkpt>
      <trkpt lat="43.52525" lon="1.74632">
        <ele>220.28</ele>
        <time>2016-05-19T13:15:53Z</time>
      </trkpt>
      <trkpt lat="43.52531" lon="1.74594">
        <ele>219.32</ele>
        <time>2016-05-19T13:16:16Z</time>
      </trkpt>
      <trkpt lat="43.52535" lon="1.74588">
        <ele>218.84</ele>
        <time>2016-05-19T13:16:21Z</time>
      </trkpt>
      <trkpt lat="43.52542" lon="1.74565">
        <ele>219.32</ele>
        <time>2016-05-19T13:16:35Z</time>
      </trkpt>
      <trkpt lat="43.52555" lon="1.74529">
        <ele>218.84</ele>
        <time>2016-05-19T13:16:56Z</time>
      </trkpt>
      <trkpt lat="43.52558" lon="1.74523">
        <ele>219.32</ele>
        <time>2016-05-19T13:16:59Z</time>
      </trkpt>
      <trkpt lat="43.52564" lon="1.7451">
        <ele>219.32</ele>
        <time>2016-05-19T13:17:08Z</time>
      </trkpt>
      <trkpt lat="43.52574" lon="1.74491">
        <ele>219.32</ele>
        <time>2016-05-19T13:17:21Z</time>
      </trkpt>
      <trkpt lat="43.52577" lon="1.74486">
        <ele>218.84</ele>
        <time>2016-05-19T13:17:25Z</time>
      </trkpt>
      <trkpt lat="43.52585" lon="1.74466">
        <ele>219.32</ele>
        <time>2016-05-19T13:17:39Z</time>
      </trkpt>
      <trkpt lat="43.52592" lon="1.74449">
        <ele>219.32</ele>
        <time>2016-05-19T13:17:49Z</time>
      </trkpt>
      <trkpt lat="43.52598" lon="1.74442">
        <ele>219.32</ele>
        <time>2016-05-19T13:17:56Z</time>
      </trkpt>
      <trkpt lat="43.52611" lon="1.74448">
        <ele>219.8</ele>
        <time>2016-05-19T13:18:06Z</time>
      </trkpt>
      <trkpt lat="43.52613" lon="1.7445">
        <ele>219.32</ele>
        <time>2016-05-19T13:18:09Z</time>
      </trkpt>
      <trkpt lat="43.52614" lon="1.74457">
        <ele>219.8</ele>
        <time>2016-05-19T13:18:12Z</time>
      </trkpt>
      <trkpt lat="43.52617" lon="1.74466">
        <ele>219.32</ele>
        <time>2016-05-19T13:18:16Z</time>
      </trkpt>
      <trkpt lat="43.52622" lon="1.7447">
        <ele>219.32</ele>
        <time>2016-05-19T13:18:19Z</time>
      </trkpt>
      <trkpt lat="43.5265" lon="1.74476">
        <ele>220.28</ele>
        <time>2016-05-19T13:18:38Z</time>
      </trkpt>
      <trkpt lat="43.52669" lon="1.74473">
        <ele>220.28</ele>
        <time>2016-05-19T13:18:47Z</time>
      </trkpt>
      <trkpt lat="43.52689" lon="1.74478">
        <ele>220.76</ele>
        <time>2016-05-19T13:19:00Z</time>
      </trkpt>
      <trkpt lat="43.52701" lon="1.74481">
        <ele>220.28</ele>
        <time>2016-05-19T13:19:09Z</time>
      </trkpt>
      <trkpt lat="43.52707" lon="1.74482">
        <ele>220.28</ele>
        <time>2016-05-19T13:19:15Z</time>
      </trkpt>
      <trkpt lat="43.5272" lon="1.74482">
        <ele>220.76</ele>
        <time>2016-05-19T13:19:27Z</time>
      </trkpt>
      <trkpt lat="43.52742" lon="1.74483">
        <ele>221.72</ele>
        <time>2016-05-19T13:19:47Z</time>
      </trkpt>
      <trkpt lat="43.52771" lon="1.74485">
        <ele>222.2</ele>
        <time>2016-05-19T13:20:08Z</time>
      </trkpt>
      <trkpt lat="43.52799" lon="1.74489">
        <ele>221.72</ele>
        <time>2016-05-19T13:20:30Z</time>
      </trkpt>
      <trkpt lat="43.52832" lon="1.74491">
        <ele>223.16</ele>
        <time>2016-05-19T13:20:50Z</time>
      </trkpt>
      <trkpt lat="43.52847" lon="1.74493">
        <ele>223.16</ele>
        <time>2016-05-19T13:20:58Z</time>
      </trkpt>
      <trkpt lat="43.52864" lon="1.74501">
        <ele>222.2</ele>
        <time>2016-05-19T13:21:08Z</time>
      </trkpt>
      <trkpt lat="43.5287" lon="1.74498">
        <ele>222.68</ele>
        <time>2016-05-19T13:21:13Z</time>
      </trkpt>
      <trkpt lat="43.52879" lon="1.74501">
        <ele>222.2</ele>
        <time>2016-05-19T13:21:23Z</time>
      </trkpt>
      <trkpt lat="43.52892" lon="1.74505">
        <ele>221.72</ele>
        <time>2016-05-19T13:21:34Z</time>
      </trkpt>
      <trkpt lat="43.52912" lon="1.74523">
        <ele>222.68</ele>
        <time>2016-05-19T13:21:52Z</time>
      </trkpt>
      <trkpt lat="43.52915" lon="1.7453">
        <ele>222.2</ele>
        <time>2016-05-19T13:21:56Z</time>
      </trkpt>
      <trkpt lat="43.52914" lon="1.74548">
        <ele>221.24</ele>
        <time>2016-05-19T13:22:05Z</time>
      </trkpt>
      <trkpt lat="43.52917" lon="1.74557">
        <ele>220.76</ele>
        <time>2016-05-19T13:22:08Z</time>
      </trkpt>
      <trkpt lat="43.52917" lon="1.74579">
        <ele>220.28</ele>
        <time>2016-05-19T13:22:18Z</time>
      </trkpt>
      <trkpt lat="43.52914" lon="1.74594">
        <ele>220.76</ele>
        <time>2016-05-19T13:22:24Z</time>
      </trkpt>
      <trkpt lat="43.52911" lon="1.74607">
        <ele>220.76</ele>
        <time>2016-05-19T13:22:32Z</time>
      </trkpt>
      <trkpt lat="43.52911" lon="1.74625">
        <ele>220.28</ele>
        <time>2016-05-19T13:22:42Z</time>
      </trkpt>
      <trkpt lat="43.52909" lon="1.74643">
        <ele>220.28</ele>
        <time>2016-05-19T13:22:50Z</time>
      </trkpt>
      <trkpt lat="43.52904" lon="1.74653">
        <ele>221.24</ele>
        <time>2016-05-19T13:22:57Z</time>
      </trkpt>
      <trkpt lat="43.52902" lon="1.74657">
        <ele>221.72</ele>
        <time>2016-05-19T13:23:01Z</time>
      </trkpt>
      <trkpt lat="43.529" lon="1.74677">
        <ele>220.28</ele>
        <time>2016-05-19T13:23:11Z</time>
      </trkpt>
      <trkpt lat="43.529" lon="1.74682">
        <ele>220.28</ele>
        <time>2016-05-19T13:23:14Z</time>
      </trkpt>
      <trkpt lat="43.52899" lon="1.74703">
        <ele>219.8</ele>
        <time>2016-05-19T13:23:26Z</time>
      </trkpt>
      <trkpt lat="43.529" lon="1.74725">
        <ele>219.8</ele>
        <time>2016-05-19T13:23:38Z</time>
      </trkpt>
      <trkpt lat="43.52893" lon="1.74753">
        <ele>219.32</ele>
        <time>2016-05-19T13:23:54Z</time>
      </trkpt>
      <trkpt lat="43.52891" lon="1.74759">
        <ele>219.32</ele>
        <time>2016-05-19T13:23:57Z</time>
      </trkpt>
      <trkpt lat="43.52889" lon="1.74774">
        <ele>219.8</ele>
        <time>2016-05-19T13:24:03Z</time>
      </trkpt>
      <trkpt lat="43.52886" lon="1.74791">
        <ele>220.28</ele>
        <time>2016-05-19T13:24:12Z</time>
      </trkpt>
      <trkpt lat="43.52881" lon="1.74797">
        <ele>220.28</ele>
        <time>2016-05-19T13:24:16Z</time>
      </trkpt>
      <trkpt lat="43.52875" lon="1.74821">
        <ele>221.24</ele>
        <time>2016-05-19T13:24:26Z</time>
      </trkpt>
      <trkpt lat="43.52874" lon="1.74831">
        <ele>221.72</ele>
        <time>2016-05-19T13:24:31Z</time>
      </trkpt>
      <trkpt lat="43.52874" lon="1.74834">
        <ele>222.2</ele>
        <time>2016-05-19T13:24:33Z</time>
      </trkpt>
      <trkpt lat="43.52874" lon="1.74852">
        <ele>221.72</ele>
        <time>2016-05-19T13:24:46Z</time>
      </trkpt>
      <trkpt lat="43.52874" lon="1.74847">
        <ele>222.2</ele>
        <time>2016-05-19T13:25:03Z</time>
      </trkpt>
      <trkpt lat="43.52864" lon="1.74829">
        <ele>222.68</ele>
        <time>2016-05-19T13:26:04Z</time>
      </trkpt>
      <trkpt lat="43.52866" lon="1.74856">
        <ele>221.24</ele>
        <time>2016-05-19T13:27:12Z</time>
      </trkpt>
      <trkpt lat="43.52868" lon="1.74863">
        <ele>221.24</ele>
        <time>2016-05-19T13:27:15Z</time>
      </trkpt>
      <trkpt lat="43.52886" lon="1.74874">
        <ele>220.76</ele>
        <time>2016-05-19T13:27:27Z</time>
      </trkpt>
      <trkpt lat="43.52902" lon="1.74877">
        <ele>221.24</ele>
        <time>2016-05-19T13:27:38Z</time>
      </trkpt>
      <trkpt lat="43.5292" lon="1.74879">
        <ele>222.68</ele>
        <time>2016-05-19T13:27:49Z</time>
      </trkpt>
      <trkpt lat="43.52941" lon="1.74878">
        <ele>222.2</ele>
        <time>2016-05-19T13:28:03Z</time>
      </trkpt>
      <trkpt lat="43.52958" lon="1.74871">
        <ele>223.16</ele>
        <time>2016-05-19T13:28:14Z</time>
      </trkpt>
      <trkpt lat="43.52976" lon="1.74865">
        <ele>223.64</ele>
        <time>2016-05-19T13:28:28Z</time>
      </trkpt>
      <trkpt lat="43.5299" lon="1.7486">
        <ele>224.61</ele>
        <time>2016-05-19T13:28:39Z</time>
      </trkpt>
      <trkpt lat="43.52992" lon="1.74859">
        <ele>225.09</ele>
        <time>2016-05-19T13:28:41Z</time>
      </trkpt>
      <trkpt lat="43.52999" lon="1.74859">
        <ele>225.09</ele>
        <time>2016-05-19T13:28:45Z</time>
      </trkpt>
      <trkpt lat="43.53004" lon="1.74858">
        <ele>225.57</ele>
        <time>2016-05-19T13:28:49Z</time>
      </trkpt>
      <trkpt lat="43.53009" lon="1.7486">
        <ele>226.05</ele>
        <time>2016-05-19T13:28:53Z</time>
      </trkpt>
      <trkpt lat="43.53012" lon="1.7486">
        <ele>226.05</ele>
        <time>2016-05-19T13:28:56Z</time>
      </trkpt>
      <trkpt lat="43.53023" lon="1.7486">
        <ele>226.05</ele>
        <time>2016-05-19T13:29:03Z</time>
      </trkpt>
      <trkpt lat="43.53027" lon="1.7486">
        <ele>226.05</ele>
        <time>2016-05-19T13:29:06Z</time>
      </trkpt>
      <trkpt lat="43.53038" lon="1.7488">
        <ele>226.53</ele>
        <time>2016-05-19T13:29:18Z</time>
      </trkpt>
      <trkpt lat="43.5304" lon="1.74891">
        <ele>226.53</ele>
        <time>2016-05-19T13:29:24Z</time>
      </trkpt>
      <trkpt lat="43.5304" lon="1.74899">
        <ele>227.01</ele>
        <time>2016-05-19T13:29:30Z</time>
      </trkpt>
      <trkpt lat="43.53044" lon="1.7491">
        <ele>227.49</ele>
        <time>2016-05-19T13:29:36Z</time>
      </trkpt>
      <trkpt lat="43.53043" lon="1.74924">
        <ele>227.49</ele>
        <time>2016-05-19T13:29:42Z</time>
      </trkpt>
      <trkpt lat="43.53042" lon="1.74931">
        <ele>227.49</ele>
        <time>2016-05-19T13:29:45Z</time>
      </trkpt>
      <trkpt lat="43.53041" lon="1.74938">
        <ele>227.97</ele>
        <time>2016-05-19T13:29:48Z</time>
      </trkpt>
      <trkpt lat="43.53043" lon="1.74941">
        <ele>227.97</ele>
        <time>2016-05-19T13:29:50Z</time>
      </trkpt>
      <trkpt lat="43.53055" lon="1.74958">
        <ele>228.45</ele>
        <time>2016-05-19T13:30:01Z</time>
      </trkpt>
      <trkpt lat="43.53057" lon="1.74976">
        <ele>229.89</ele>
        <time>2016-05-19T13:30:13Z</time>
      </trkpt>
      <trkpt lat="43.53056" lon="1.74979">
        <ele>229.89</ele>
        <time>2016-05-19T13:30:16Z</time>
      </trkpt>
      <trkpt lat="43.5306" lon="1.74998">
        <ele>230.85</ele>
        <time>2016-05-19T13:30:28Z</time>
      </trkpt>
      <trkpt lat="43.53059" lon="1.75">
        <ele>231.81</ele>
        <time>2016-05-19T13:30:30Z</time>
      </trkpt>
      <trkpt lat="43.5307" lon="1.75024">
        <ele>233.26</ele>
        <time>2016-05-19T13:30:45Z</time>
      </trkpt>
      <trkpt lat="43.53076" lon="1.75042">
        <ele>234.7</ele>
        <time>2016-05-19T13:30:58Z</time>
      </trkpt>
      <trkpt lat="43.53082" lon="1.75051">
        <ele>234.7</ele>
        <time>2016-05-19T13:31:03Z</time>
      </trkpt>
      <trkpt lat="43.53081" lon="1.75058">
        <ele>234.7</ele>
        <time>2016-05-19T13:31:07Z</time>
      </trkpt>
      <trkpt lat="43.53077" lon="1.75071">
        <ele>236.14</ele>
        <time>2016-05-19T13:31:14Z</time>
      </trkpt>
      <trkpt lat="43.53073" lon="1.75081">
        <ele>238.06</ele>
        <time>2016-05-19T13:31:23Z</time>
      </trkpt>
      <trkpt lat="43.53063" lon="1.75088">
        <ele>239.51</ele>
        <time>2016-05-19T13:31:33Z</time>
      </trkpt>
      <trkpt lat="43.53044" lon="1.75097">
        <ele>240.47</ele>
        <time>2016-05-19T13:31:46Z</time>
      </trkpt>
      <trkpt lat="43.53027" lon="1.75105">
        <ele>240.95</ele>
        <time>2016-05-19T13:31:58Z</time>
      </trkpt>
      <trkpt lat="43.53012" lon="1.75111">
        <ele>241.91</ele>
        <time>2016-05-19T13:32:10Z</time>
      </trkpt>
      <trkpt lat="43.53002" lon="1.75118">
        <ele>243.35</ele>
        <time>2016-05-19T13:32:20Z</time>
      </trkpt>
      <trkpt lat="43.52999" lon="1.7513">
        <ele>242.87</ele>
        <time>2016-05-19T13:32:28Z</time>
      </trkpt>
      <trkpt lat="43.52999" lon="1.75137">
        <ele>244.31</ele>
        <time>2016-05-19T13:32:32Z</time>
      </trkpt>
      <trkpt lat="43.52996" lon="1.75142">
        <ele>244.79</ele>
        <time>2016-05-19T13:32:36Z</time>
      </trkpt>
      <trkpt lat="43.5299" lon="1.75163">
        <ele>246.72</ele>
        <time>2016-05-19T13:32:46Z</time>
      </trkpt>
      <trkpt lat="43.52987" lon="1.75168">
        <ele>247.2</ele>
        <time>2016-05-19T13:32:50Z</time>
      </trkpt>
      <trkpt lat="43.52981" lon="1.75184">
        <ele>248.64</ele>
        <time>2016-05-19T13:33:02Z</time>
      </trkpt>
      <trkpt lat="43.52982" lon="1.75189">
        <ele>248.64</ele>
        <time>2016-05-19T13:33:05Z</time>
      </trkpt>
      <trkpt lat="43.5298" lon="1.75196">
        <ele>248.64</ele>
        <time>2016-05-19T13:33:09Z</time>
      </trkpt>
      <trkpt lat="43.52977" lon="1.75201">
        <ele>250.08</ele>
        <time>2016-05-19T13:33:12Z</time>
      </trkpt>
      <trkpt lat="43.52975" lon="1.75207">
        <ele>251.04</ele>
        <time>2016-05-19T13:33:15Z</time>
      </trkpt>
      <trkpt lat="43.52969" lon="1.75222">
        <ele>252</ele>
        <time>2016-05-19T13:33:23Z</time>
      </trkpt>
      <trkpt lat="43.52967" lon="1.7523">
        <ele>252.48</ele>
        <time>2016-05-19T13:33:28Z</time>
      </trkpt>
      <trkpt lat="43.52964" lon="1.75246">
        <ele>254.89</ele>
        <time>2016-05-19T13:33:41Z</time>
      </trkpt>
      <trkpt lat="43.52962" lon="1.7526">
        <ele>256.33</ele>
        <time>2016-05-19T13:33:51Z</time>
      </trkpt>
      <trkpt lat="43.52958" lon="1.75267">
        <ele>256.81</ele>
        <time>2016-05-19T13:33:54Z</time>
      </trkpt>
      <trkpt lat="43.52953" lon="1.7529">
        <ele>258.25</ele>
        <time>2016-05-19T13:34:05Z</time>
      </trkpt>
      <trkpt lat="43.5295" lon="1.75305">
        <ele>259.69</ele>
        <time>2016-05-19T13:34:17Z</time>
      </trkpt>
      <trkpt lat="43.52946" lon="1.75341">
        <ele>262.1</ele>
        <time>2016-05-19T13:34:34Z</time>
      </trkpt>
      <trkpt lat="43.52937" lon="1.75365">
        <ele>261.62</ele>
        <time>2016-05-19T13:34:47Z</time>
      </trkpt>
      <trkpt lat="43.52936" lon="1.75372">
        <ele>262.1</ele>
        <time>2016-05-19T13:34:51Z</time>
      </trkpt>
      <trkpt lat="43.5293" lon="1.75384">
        <ele>263.54</ele>
        <time>2016-05-19T13:34:58Z</time>
      </trkpt>
      <trkpt lat="43.52926" lon="1.75399">
        <ele>263.54</ele>
        <time>2016-05-19T13:35:06Z</time>
      </trkpt>
      <trkpt lat="43.52926" lon="1.75404">
        <ele>263.54</ele>
        <time>2016-05-19T13:35:09Z</time>
      </trkpt>
      <trkpt lat="43.52928" lon="1.75408">
        <ele>263.54</ele>
        <time>2016-05-19T13:35:13Z</time>
      </trkpt>
      <trkpt lat="43.52927" lon="1.75428">
        <ele>264.5</ele>
        <time>2016-05-19T13:35:25Z</time>
      </trkpt>
      <trkpt lat="43.52928" lon="1.75431">
        <ele>264.5</ele>
        <time>2016-05-19T13:35:27Z</time>
      </trkpt>
      <trkpt lat="43.52929" lon="1.75437">
        <ele>264.5</ele>
        <time>2016-05-19T13:35:30Z</time>
      </trkpt>
      <trkpt lat="43.52937" lon="1.75458">
        <ele>264.98</ele>
        <time>2016-05-19T13:35:42Z</time>
      </trkpt>
      <trkpt lat="43.52941" lon="1.75469">
        <ele>265.46</ele>
        <time>2016-05-19T13:35:49Z</time>
      </trkpt>
      <trkpt lat="43.52943" lon="1.75477">
        <ele>265.46</ele>
        <time>2016-05-19T13:35:53Z</time>
      </trkpt>
      <trkpt lat="43.52959" lon="1.75507">
        <ele>267.38</ele>
        <time>2016-05-19T13:36:08Z</time>
      </trkpt>
      <trkpt lat="43.52965" lon="1.75518">
        <ele>267.86</ele>
        <time>2016-05-19T13:36:19Z</time>
      </trkpt>
      <trkpt lat="43.52972" lon="1.7553">
        <ele>268.35</ele>
        <time>2016-05-19T13:36:28Z</time>
      </trkpt>
      <trkpt lat="43.52979" lon="1.75544">
        <ele>269.79</ele>
        <time>2016-05-19T13:36:37Z</time>
      </trkpt>
      <trkpt lat="43.52984" lon="1.75552">
        <ele>270.75</ele>
        <time>2016-05-19T13:36:42Z</time>
      </trkpt>
      <trkpt lat="43.52985" lon="1.75555">
        <ele>270.75</ele>
        <time>2016-05-19T13:36:44Z</time>
      </trkpt>
      <trkpt lat="43.52987" lon="1.75569">
        <ele>273.63</ele>
        <time>2016-05-19T13:36:56Z</time>
      </trkpt>
      <trkpt lat="43.52991" lon="1.75574">
        <ele>274.11</ele>
        <time>2016-05-19T13:36:59Z</time>
      </trkpt>
      <trkpt lat="43.52995" lon="1.75583">
        <ele>275.56</ele>
        <time>2016-05-19T13:37:04Z</time>
      </trkpt>
      <trkpt lat="43.52993" lon="1.75586">
        <ele>277</ele>
        <time>2016-05-19T13:37:07Z</time>
      </trkpt>
      <trkpt lat="43.53004" lon="1.75596">
        <ele>277.48</ele>
        <time>2016-05-19T13:37:20Z</time>
      </trkpt>
      <trkpt lat="43.53008" lon="1.75598">
        <ele>278.92</ele>
        <time>2016-05-19T13:37:24Z</time>
      </trkpt>
      <trkpt lat="43.53021" lon="1.756">
        <ele>278.44</ele>
        <time>2016-05-19T13:37:35Z</time>
      </trkpt>
      <trkpt lat="43.53028" lon="1.75599">
        <ele>278.92</ele>
        <time>2016-05-19T13:37:39Z</time>
      </trkpt>
      <trkpt lat="43.53033" lon="1.75601">
        <ele>279.4</ele>
        <time>2016-05-19T13:37:42Z</time>
      </trkpt>
      <trkpt lat="43.53039" lon="1.75596">
        <ele>279.88</ele>
        <time>2016-05-19T13:37:52Z</time>
      </trkpt>
      <trkpt lat="43.53046" lon="1.7559">
        <ele>280.84</ele>
        <time>2016-05-19T13:37:58Z</time>
      </trkpt>
      <trkpt lat="43.53059" lon="1.75588">
        <ele>281.32</ele>
        <time>2016-05-19T13:38:09Z</time>
      </trkpt>
      <trkpt lat="43.53069" lon="1.75587">
        <ele>280.84</ele>
        <time>2016-05-19T13:38:14Z</time>
      </trkpt>
      <trkpt lat="43.53077" lon="1.75591">
        <ele>283.25</ele>
        <time>2016-05-19T13:38:24Z</time>
      </trkpt>
      <trkpt lat="43.53082" lon="1.75605">
        <ele>283.25</ele>
        <time>2016-05-19T13:38:32Z</time>
      </trkpt>
      <trkpt lat="43.53093" lon="1.75621">
        <ele>283.25</ele>
        <time>2016-05-19T13:38:42Z</time>
      </trkpt>
      <trkpt lat="43.53094" lon="1.7563">
        <ele>282.77</ele>
        <time>2016-05-19T13:38:46Z</time>
      </trkpt>
      <trkpt lat="43.53093" lon="1.75639">
        <ele>282.77</ele>
        <time>2016-05-19T13:38:51Z</time>
      </trkpt>
      <trkpt lat="43.53094" lon="1.75649">
        <ele>283.25</ele>
        <time>2016-05-19T13:38:55Z</time>
      </trkpt>
      <trkpt lat="43.53099" lon="1.7568">
        <ele>282.28</ele>
        <time>2016-05-19T13:39:09Z</time>
      </trkpt>
      <trkpt lat="43.531" lon="1.75696">
        <ele>281.32</ele>
        <time>2016-05-19T13:39:18Z</time>
      </trkpt>
      <trkpt lat="43.53101" lon="1.757">
        <ele>281.32</ele>
        <time>2016-05-19T13:39:21Z</time>
      </trkpt>
      <trkpt lat="43.53099" lon="1.7571">
        <ele>280.84</ele>
        <time>2016-05-19T13:39:27Z</time>
      </trkpt>
      <trkpt lat="43.53098" lon="1.75714">
        <ele>280.84</ele>
        <time>2016-05-19T13:39:31Z</time>
      </trkpt>
      <trkpt lat="43.53114" lon="1.75721">
        <ele>279.4</ele>
        <time>2016-05-19T13:39:40Z</time>
      </trkpt>
      <trkpt lat="43.53127" lon="1.75727">
        <ele>277.48</ele>
        <time>2016-05-19T13:39:52Z</time>
      </trkpt>
      <trkpt lat="43.53131" lon="1.75734">
        <ele>276.04</ele>
        <time>2016-05-19T13:39:57Z</time>
      </trkpt>
      <trkpt lat="43.53144" lon="1.75742">
        <ele>272.67</ele>
        <time>2016-05-19T13:40:10Z</time>
      </trkpt>
      <trkpt lat="43.53143" lon="1.75756">
        <ele>271.71</ele>
        <time>2016-05-19T13:40:18Z</time>
      </trkpt>
      <trkpt lat="43.53135" lon="1.75778">
        <ele>270.27</ele>
        <time>2016-05-19T13:40:33Z</time>
      </trkpt>
      <trkpt lat="43.53133" lon="1.75787">
        <ele>269.79</ele>
        <time>2016-05-19T13:40:39Z</time>
      </trkpt>
      <trkpt lat="43.53133" lon="1.75792">
        <ele>269.79</ele>
        <time>2016-05-19T13:40:43Z</time>
      </trkpt>
      <trkpt lat="43.53124" lon="1.75802">
        <ele>269.31</ele>
        <time>2016-05-19T13:40:54Z</time>
      </trkpt>
      <trkpt lat="43.53112" lon="1.7582">
        <ele>269.31</ele>
        <time>2016-05-19T13:41:08Z</time>
      </trkpt>
      <trkpt lat="43.53108" lon="1.75829">
        <ele>268.35</ele>
        <time>2016-05-19T13:41:15Z</time>
      </trkpt>
      <trkpt lat="43.53101" lon="1.75846">
        <ele>268.35</ele>
        <time>2016-05-19T13:41:25Z</time>
      </trkpt>
      <trkpt lat="43.53086" lon="1.75871">
        <ele>268.83</ele>
        <time>2016-05-19T13:41:42Z</time>
      </trkpt>
      <trkpt lat="43.53076" lon="1.75882">
        <ele>267.86</ele>
        <time>2016-05-19T13:41:49Z</time>
      </trkpt>
      <trkpt lat="43.53072" lon="1.75885">
        <ele>267.38</ele>
        <time>2016-05-19T13:41:55Z</time>
      </trkpt>
      <trkpt lat="43.53065" lon="1.75892">
        <ele>266.9</ele>
        <time>2016-05-19T13:42:02Z</time>
      </trkpt>
      <trkpt lat="43.53058" lon="1.75901">
        <ele>265.46</ele>
        <time>2016-05-19T13:42:09Z</time>
      </trkpt>
      <trkpt lat="43.53058" lon="1.75905">
        <ele>264.98</ele>
        <time>2016-05-19T13:42:12Z</time>
      </trkpt>
      <trkpt lat="43.53067" lon="1.75909">
        <ele>263.54</ele>
        <time>2016-05-19T13:42:19Z</time>
      </trkpt>
      <trkpt lat="43.53069" lon="1.75916">
        <ele>262.58</ele>
        <time>2016-05-19T13:42:23Z</time>
      </trkpt>
      <trkpt lat="43.53076" lon="1.75927">
        <ele>261.14</ele>
        <time>2016-05-19T13:42:33Z</time>
      </trkpt>
      <trkpt lat="43.53077" lon="1.7593">
        <ele>261.14</ele>
        <time>2016-05-19T13:42:35Z</time>
      </trkpt>
      <trkpt lat="43.53082" lon="1.75933">
        <ele>259.69</ele>
        <time>2016-05-19T13:42:39Z</time>
      </trkpt>
      <trkpt lat="43.53099" lon="1.75945">
        <ele>258.73</ele>
        <time>2016-05-19T13:42:51Z</time>
      </trkpt>
      <trkpt lat="43.5311" lon="1.75959">
        <ele>256.33</ele>
        <time>2016-05-19T13:43:05Z</time>
      </trkpt>
      <trkpt lat="43.53111" lon="1.75959">
        <ele>256.81</ele>
        <time>2016-05-19T13:43:06Z</time>
      </trkpt>
      <trkpt lat="43.53117" lon="1.75964">
        <ele>256.33</ele>
        <time>2016-05-19T13:43:11Z</time>
      </trkpt>
      <trkpt lat="43.53128" lon="1.75978">
        <ele>255.37</ele>
        <time>2016-05-19T13:43:22Z</time>
      </trkpt>
      <trkpt lat="43.53138" lon="1.75993">
        <ele>254.41</ele>
        <time>2016-05-19T13:43:34Z</time>
      </trkpt>
      <trkpt lat="43.53146" lon="1.76014">
        <ele>252.96</ele>
        <time>2016-05-19T13:43:46Z</time>
      </trkpt>
      <trkpt lat="43.53149" lon="1.76035">
        <ele>252.96</ele>
        <time>2016-05-19T13:43:56Z</time>
      </trkpt>
      <trkpt lat="43.53151" lon="1.76046">
        <ele>253.44</ele>
        <time>2016-05-19T13:44:02Z</time>
      </trkpt>
      <trkpt lat="43.53154" lon="1.76049">
        <ele>253.44</ele>
        <time>2016-05-19T13:44:05Z</time>
      </trkpt>
      <trkpt lat="43.53155" lon="1.76052">
        <ele>253.44</ele>
        <time>2016-05-19T13:44:07Z</time>
      </trkpt>
      <trkpt lat="43.53163" lon="1.76074">
        <ele>252</ele>
        <time>2016-05-19T13:44:21Z</time>
      </trkpt>
      <trkpt lat="43.53167" lon="1.76087">
        <ele>251.52</ele>
        <time>2016-05-19T13:44:30Z</time>
      </trkpt>
      <trkpt lat="43.5317" lon="1.76095">
        <ele>251.52</ele>
        <time>2016-05-19T13:44:35Z</time>
      </trkpt>
      <trkpt lat="43.53179" lon="1.76109">
        <ele>251.52</ele>
        <time>2016-05-19T13:44:42Z</time>
      </trkpt>
      <trkpt lat="43.53188" lon="1.76123">
        <ele>251.04</ele>
        <time>2016-05-19T13:44:53Z</time>
      </trkpt>
      <trkpt lat="43.53189" lon="1.76127">
        <ele>250.56</ele>
        <time>2016-05-19T13:44:56Z</time>
      </trkpt>
      <trkpt lat="43.53191" lon="1.76131">
        <ele>250.56</ele>
        <time>2016-05-19T13:44:58Z</time>
      </trkpt>
      <trkpt lat="43.53196" lon="1.76138">
        <ele>250.56</ele>
        <time>2016-05-19T13:45:03Z</time>
      </trkpt>
      <trkpt lat="43.53201" lon="1.7614">
        <ele>250.56</ele>
        <time>2016-05-19T13:45:05Z</time>
      </trkpt>
      <trkpt lat="43.53215" lon="1.76156">
        <ele>250.56</ele>
        <time>2016-05-19T13:45:18Z</time>
      </trkpt>
      <trkpt lat="43.53222" lon="1.76159">
        <ele>250.08</ele>
        <time>2016-05-19T13:45:25Z</time>
      </trkpt>
      <trkpt lat="43.53231" lon="1.76158">
        <ele>250.08</ele>
        <time>2016-05-19T13:45:38Z</time>
      </trkpt>
      <trkpt lat="43.53236" lon="1.76158">
        <ele>250.08</ele>
        <time>2016-05-19T13:45:42Z</time>
      </trkpt>
      <trkpt lat="43.53245" lon="1.76162">
        <ele>250.08</ele>
        <time>2016-05-19T13:45:48Z</time>
      </trkpt>
      <trkpt lat="43.53255" lon="1.76172">
        <ele>250.08</ele>
        <time>2016-05-19T13:45:55Z</time>
      </trkpt>
      <trkpt lat="43.53266" lon="1.76172">
        <ele>249.6</ele>
        <time>2016-05-19T13:46:06Z</time>
      </trkpt>
      <trkpt lat="43.53278" lon="1.7617">
        <ele>250.08</ele>
        <time>2016-05-19T13:46:17Z</time>
      </trkpt>
      <trkpt lat="43.53287" lon="1.76164">
        <ele>249.12</ele>
        <time>2016-05-19T13:46:24Z</time>
      </trkpt>
      <trkpt lat="43.53291" lon="1.76163">
        <ele>249.6</ele>
        <time>2016-05-19T13:46:28Z</time>
      </trkpt>
      <trkpt lat="43.53295" lon="1.76159">
        <ele>249.12</ele>
        <time>2016-05-19T13:46:31Z</time>
      </trkpt>
      <trkpt lat="43.53308" lon="1.76143">
        <ele>249.12</ele>
        <time>2016-05-19T13:46:42Z</time>
      </trkpt>
      <trkpt lat="43.53318" lon="1.76136">
        <ele>248.64</ele>
        <time>2016-05-19T13:46:50Z</time>
      </trkpt>
      <trkpt lat="43.53324" lon="1.76123">
        <ele>248.64</ele>
        <time>2016-05-19T13:46:58Z</time>
      </trkpt>
      <trkpt lat="43.5333" lon="1.76112">
        <ele>248.64</ele>
        <time>2016-05-19T13:47:07Z</time>
      </trkpt>
      <trkpt lat="43.53331" lon="1.76107">
        <ele>248.16</ele>
        <time>2016-05-19T13:47:12Z</time>
      </trkpt>
      <trkpt lat="43.53342" lon="1.76086">
        <ele>247.68</ele>
        <time>2016-05-19T13:47:24Z</time>
      </trkpt>
      <trkpt lat="43.53353" lon="1.76073">
        <ele>247.2</ele>
        <time>2016-05-19T13:47:31Z</time>
      </trkpt>
      <trkpt lat="43.53359" lon="1.76064">
        <ele>246.72</ele>
        <time>2016-05-19T13:47:40Z</time>
      </trkpt>
      <trkpt lat="43.53362" lon="1.76055">
        <ele>247.68</ele>
        <time>2016-05-19T13:47:45Z</time>
      </trkpt>
      <trkpt lat="43.53363" lon="1.76045">
        <ele>246.23</ele>
        <time>2016-05-19T13:47:54Z</time>
      </trkpt>
      <trkpt lat="43.53359" lon="1.76051">
        <ele>245.27</ele>
        <time>2016-05-19T13:48:06Z</time>
      </trkpt>
      <trkpt lat="43.53356" lon="1.76057">
        <ele>244.31</ele>
        <time>2016-05-19T13:48:17Z</time>
      </trkpt>
      <trkpt lat="43.53354" lon="1.7606">
        <ele>244.31</ele>
        <time>2016-05-19T13:48:19Z</time>
      </trkpt>
      <trkpt lat="43.53346" lon="1.76067">
        <ele>243.83</ele>
        <time>2016-05-19T13:48:32Z</time>
      </trkpt>
      <trkpt lat="43.53333" lon="1.76064">
        <ele>243.83</ele>
        <time>2016-05-19T13:48:48Z</time>
      </trkpt>
      <trkpt lat="43.53337" lon="1.7605">
        <ele>243.35</ele>
        <time>2016-05-19T13:51:16Z</time>
      </trkpt>
      <trkpt lat="43.53338" lon="1.76051">
        <ele>244.31</ele>
        <time>2016-05-19T13:51:29Z</time>
      </trkpt>
      <trkpt lat="43.53338" lon="1.76051">
        <ele>235.18</ele>
        <time>2016-05-19T14:13:18Z</time>
      </trkpt>
      <trkpt lat="43.53338" lon="1.76051">
        <ele>242.39</ele>
        <time>2016-05-19T14:13:19Z</time>
      </trkpt>
    </trkseg>
  </trk>
</gpx>